tititudorancea.com
Station Historical Data
Daily Summary for April 10, 2018 Units:  Metric    English   Both
« Previous Day
Next Day »
Daily Weekly Monthly Yearly Custom
  High: Low: Average:
Temperature: -17.8 °C 18.7 °C 23.7 °C
Dew Point: -17.8 °C 8.1 °C 10 °C
Humidity: Humidity % 29 % 43 %
Wind Speed: 0 km/h 0 km/h 5 km/h
Wind Gust: 0 km/h - -
Wind:- - SSW
Pressure: 0 hPa 1011.4 hPa -
Precipitation: 0 mm    
Historical Graphs
 
 
Ararat weather Find more about Weather in Ararat, AU


 



 


Tabular Data for April 10, 2018
Time Temperature Dew Point Pressure Wind Wind Speed Wind Gust Humidity Rainfall Rate (Hourly)
-17.8 °C -17.8 °C 0 hPa Calm     Humidity % 0 mm
00:04 20 °C 9.6 °C 1012.8 hPa WNW 4.5 km/h 5.6 km/h 51 % 0 mm
00:09 20.5 °C 9.4 °C 1012.8 hPa WNW 4.8 km/h 7.4 km/h 49 % 0 mm
00:14 20.7 °C 9.3 °C 1012.8 hPa WNW 8.2 km/h 9.7 km/h 48 % 0 mm
00:19 20.9 °C 9.5 °C 1012.8 hPa WNW 5 km/h 7.4 km/h 48 % 0 mm
00:24 21 °C 9.6 °C 1012.8 hPa WNW 8.4 km/h 11.3 km/h 48 % 0 mm
00:29 21.1 °C 9.3 °C 1012.8 hPa WNW 7.4 km/h 11.3 km/h 47 % 0 mm
00:34 21.4 °C 9.3 °C 1012.4 hPa NW 7.4 km/h 16.7 km/h 46 % 0 mm
00:39 21.6 °C 9.5 °C 1012.4 hPa NW 6.8 km/h 9.7 km/h 46 % 0 mm
00:44 21.8 °C 9.4 °C 1012.4 hPa NW 8.5 km/h 11.1 km/h 45 % 0 mm
00:49 21.9 °C 9.1 °C 1012.4 hPa NW 7.9 km/h 11.3 km/h 44 % 0 mm
00:54 21.8 °C 9.4 °C 1012.4 hPa North 8.5 km/h 11.3 km/h 45 % 0 mm
00:59 21.9 °C 9.1 °C 1012.4 hPa NW 8.2 km/h 16.7 km/h 44 % 0 mm
01:04 21.9 °C 9.1 °C 1012.4 hPa NW 7.1 km/h 14.8 km/h 44 % 0 mm
01:09 21.9 °C 9.1 °C 1012.8 hPa NW 6.9 km/h 13 km/h 44 % 0 mm
01:14 21.9 °C 9.1 °C 1012.8 hPa NW 7.9 km/h 11.1 km/h 44 % 0 mm
01:19 21.8 °C 9.1 °C 1012.8 hPa NW 9.2 km/h 14.8 km/h 44 % 0 mm
01:24 21.8 °C 9 °C 1012.8 hPa North 9 km/h 14.8 km/h 44 % 0 mm
01:29 21.8 °C 9 °C 1012.8 hPa NNW 10.6 km/h 14.8 km/h 44 % 0 mm
01:34 21.7 °C 8.9 °C 1012.4 hPa NNW 7.1 km/h 9.3 km/h 44 % 0 mm
01:39 21.7 °C 8.9 °C 1012.4 hPa NNW 5.6 km/h 9.3 km/h 44 % 0 mm
01:44 21.6 °C 8.8 °C 1012.8 hPa NNW 6.8 km/h 9.3 km/h 44 % 0 mm
01:49 21.5 °C 8.7 °C 1012.8 hPa North 3.2 km/h 7.4 km/h 44 % 0 mm
01:54 21.4 °C 8.6 °C 1012.8 hPa NNW 2.3 km/h 5.6 km/h 44 % 0 mm
01:59 21.3 °C 8.9 °C 1012.4 hPa North 4 km/h 5.6 km/h 45 % 0 mm
02:04 21.2 °C 8.8 °C 1012.8 hPa North 4.2 km/h 7.4 km/h 45 % 0 mm
02:09 21.1 °C 9.1 °C 1012.8 hPa North 4.8 km/h 5.6 km/h 46 % 0 mm
02:15 21 °C 8.9 °C 1012.8 hPa North 3.9 km/h 5.6 km/h 46 % 0 mm
02:19 20.8 °C 8.8 °C 1012.8 hPa NNW 5.1 km/h 8 km/h 46 % 0 mm
02:25 20.7 °C 9 °C 1012.8 hPa NNW 4.2 km/h 5.6 km/h 47 % 0 mm
02:30 20.7 °C 8.9 °C 1012.8 hPa NNW 4.8 km/h 5.6 km/h 47 % 0 mm
02:35 20.6 °C 8.9 °C 1012.8 hPa NNW 5.5 km/h 5.6 km/h 47 % 0 mm
02:40 20.6 °C 8.9 °C 1012.4 hPa NNW 6.6 km/h 9.3 km/h 47 % 0 mm
02:45 20.6 °C 8.9 °C 1012.4 hPa NNW 6.8 km/h 7.4 km/h 47 % 0 mm
02:50 20.6 °C 8.9 °C 1012.8 hPa North 3.5 km/h 7.4 km/h 47 % 0 mm
02:55 20.6 °C 8.8 °C 1012.8 hPa NNW 4.7 km/h 5.6 km/h 47 % 0 mm
03:00 20.6 °C 8.8 °C 1012.4 hPa NNW 2.3 km/h 3.7 km/h 47 % 0 mm
03:05 20.4 °C 9.1 °C 1012.4 hPa NNW 3.1 km/h 5.6 km/h 48 % 0 mm
03:10 20.3 °C 8.9 °C 1012.4 hPa NNW 3.5 km/h 5.6 km/h 48 % 0 mm
03:11 20.3 °C 8.9 °C 1012.4 hPa NNW 4 km/h 5.6 km/h 48 % 0 mm
03:12 20.3 °C 8.9 °C 1012.4 hPa NNW 3.7 km/h 5.6 km/h 48 % 0 mm
03:13 20.2 °C 8.8 °C 1012.8 hPa NNW 3.2 km/h 7.4 km/h 48 % 0 mm
03:14 20.2 °C 8.8 °C 1012.8 hPa NNW 3.2 km/h 5.6 km/h 48 % 0 mm
03:16 20.3 °C 8.9 °C 1012.8 hPa NNW 3.1 km/h 5.6 km/h 48 % 0 mm
03:17 20.3 °C 8.9 °C 1012.8 hPa North 3.7 km/h 5.6 km/h 48 % 0 mm
03:19 20.3 °C 8.9 °C 1012.4 hPa NNW 5 km/h 7.4 km/h 48 % 0 mm
03:22 20.4 °C 9 °C 1012.4 hPa NNW 10 km/h 13 km/h 48 % 0 mm
03:25 20.5 °C 9.1 °C 1012.1 hPa NNW 9.2 km/h 13 km/h 48 % 0 mm
03:29 20.5 °C 8.8 °C 1012.1 hPa North 6.4 km/h 11.1 km/h 47 % 0 mm
03:30 20.5 °C 8.8 °C 1012.1 hPa NNW 6.1 km/h 9.3 km/h 47 % 0 mm
03:31 20.5 °C 8.8 °C 1012.1 hPa NNW 6.3 km/h 11.1 km/h 47 % 0 mm
03:33 20.5 °C 8.8 °C 1012.1 hPa NNW 4 km/h 5.6 km/h 47 % 0 mm
03:34 20.5 °C 8.8 °C 1012.1 hPa NNW 3.9 km/h 5.6 km/h 47 % 0 mm
03:35 20.5 °C 9.1 °C 1012.1 hPa NNW 5.1 km/h 7.4 km/h 48 % 0 mm
03:36 20.5 °C 8.8 °C 1012.1 hPa NNW 5.5 km/h 5.6 km/h 47 % 0 mm
03:38 20.5 °C 8.8 °C 1012.1 hPa North 5.5 km/h 5.6 km/h 47 % 0 mm
03:42 20.5 °C 8.8 °C 1012.1 hPa NNW 4.2 km/h 5.6 km/h 47 % 0 mm
03:43 20.5 °C 9.1 °C 1012.1 hPa NNW 5.6 km/h 8 km/h 48 % 0 mm
03:44 20.5 °C 9.1 °C 1012.1 hPa NNW 5.3 km/h 7.4 km/h 48 % 0 mm
03:46 20.4 °C 9.1 °C 1012.1 hPa North 4.5 km/h 8 km/h 48 % 0 mm
03:47 20.4 °C 9.1 °C 1011.7 hPa NNW 5.3 km/h 7.4 km/h 48 % 0 mm
03:48 20.4 °C 9.1 °C 1011.7 hPa North 6.4 km/h 7.4 km/h 48 % 0 mm
03:50 20.4 °C 9.1 °C 1011.7 hPa NNW 5.6 km/h 6.4 km/h 48 % 0 mm
03:53 20.4 °C 9 °C 1011.4 hPa NNW 5.1 km/h 11.1 km/h 48 % 0 mm
03:55 20.4 °C 9 °C 1011.7 hPa North 2.6 km/h 7.4 km/h 48 % 0 mm
03:57 20.3 °C 8.9 °C 1011.7 hPa NNW 3.2 km/h 6.4 km/h 48 % 0 mm
03:58 20.3 °C 8.9 °C 1011.7 hPa North 3.5 km/h 5.6 km/h 48 % 0 mm
03:59 20.3 °C 8.9 °C 1011.7 hPa NNW 3.7 km/h 5.6 km/h 48 % 0 mm
04:00 20.3 °C 8.9 °C 1011.7 hPa NNW 3.7 km/h 5.6 km/h 48 % 0 mm
04:01 20.3 °C 8.9 °C 1011.7 hPa NNW 2.1 km/h 5.6 km/h 48 % 0 mm
04:02 20.3 °C 8.9 °C 1011.7 hPa NNW 2.6 km/h 5.6 km/h 48 % 0 mm
04:03 20.3 °C 8.9 °C 1011.7 hPa NNW 2.7 km/h 5.6 km/h 48 % 0 mm
04:04 20.3 °C 8.9 °C 1012.1 hPa NNW 1.8 km/h 3.7 km/h 48 % 0 mm
04:05 20.2 °C 8.8 °C 1012.1 hPa NNW 1.3 km/h 5.6 km/h 48 % 0 mm
04:06 20.2 °C 8.8 °C 1012.1 hPa NNW 2.1 km/h 3.7 km/h 48 % 0 mm
04:07 20.2 °C 8.8 °C 1012.1 hPa NNW 2.3 km/h 3.7 km/h 48 % 0 mm
04:08 20.2 °C 8.8 °C 1012.1 hPa NNW 1.3 km/h 1.9 km/h 48 % 0 mm
04:11 20.2 °C 8.8 °C 1012.4 hPa Calm   3.7 km/h 48 % 0 mm
04:12 20.2 °C 8.8 °C 1012.4 hPa Calm     48 % 0 mm
04:13 20.2 °C 9.2 °C 1012.1 hPa Calm     49 % 0 mm
04:14 20.2 °C 9.2 °C 1012.4 hPa North 1.8 km/h 5.6 km/h 49 % 0 mm
04:15 20.2 °C 9.2 °C 1012.4 hPa NNW 1.9 km/h 5.6 km/h 49 % 0 mm
04:18 20.2 °C 8.8 °C 1012.4 hPa North 3.1 km/h 5.6 km/h 48 % 0 mm
04:19 20.2 °C 9.2 °C 1012.4 hPa NNW 2.7 km/h 5.6 km/h 49 % 0 mm
04:20 20.2 °C 9.2 °C 1012.4 hPa NNW 4.8 km/h 5.6 km/h 49 % 0 mm
04:21 20.2 °C 9.2 °C 1012.4 hPa North 5.1 km/h 5.6 km/h 49 % 0 mm
04:22 20.2 °C 8.8 °C 1012.4 hPa NNW 5.5 km/h 5.6 km/h 48 % 0 mm
04:23 20.2 °C 8.8 °C 1012.4 hPa NNW 4.2 km/h 5.6 km/h 48 % 0 mm
04:24 20.3 °C 8.9 °C 1012.8 hPa NNW 2.1 km/h 5.6 km/h 48 % 0 mm
04:25 20.3 °C 8.9 °C 1012.8 hPa NNW 0.3 km/h 5.6 km/h 48 % 0 mm
04:26 20.3 °C 9.2 °C 1013.1 hPa NNW 0.2 km/h 1.9 km/h 49 % 0 mm
04:27 20.3 °C 8.9 °C 1013.1 hPa NNW 1.8 km/h 3.2 km/h 48 % 0 mm
04:29 20.3 °C 9.2 °C 1013.4 hPa Calm     49 % 0 mm
04:30 20.3 °C 9.2 °C 1013.4 hPa NNW 0.6 km/h 3.2 km/h 49 % 0 mm
04:31 20.2 °C 9.2 °C 1013.8 hPa NNW 4.8 km/h 6.4 km/h 49 % 0 mm
04:33 20.2 °C 9.2 °C 1013.8 hPa North 2.3 km/h 5.6 km/h 49 % 0 mm
04:35 20.2 °C 9.1 °C 1014.1 hPa NW 8.7 km/h 11.1 km/h 49 % 0 mm
04:36 20.2 °C 8.8 °C 1014.1 hPa North 7.9 km/h 13 km/h 48 % 0 mm
04:37 20.2 °C 8.8 °C 1014.1 hPa West 3.4 km/h 13 km/h 48 % 0 mm
04:38 20.2 °C 8.8 °C 1014.1 hPa North 2.7 km/h 13 km/h 48 % 0 mm
04:41 20.2 °C 8.8 °C 1014.1 hPa West 4.7 km/h 5.6 km/h 48 % 0 mm
04:42 20.3 °C 8.9 °C 1014.1 hPa West 3.4 km/h 5.6 km/h 48 % 0 mm
04:44 20.3 °C 9.2 °C 1014.1 hPa West 1.4 km/h 3.7 km/h 49 % 0 mm
04:45 20.2 °C 9.2 °C 1014.1 hPa West 0.3 km/h 1.9 km/h 49 % 0 mm
04:46 20.2 °C 9.2 °C 1014.1 hPa Calm     49 % 0 mm
04:47 20.2 °C 9.2 °C 1014.1 hPa Calm     49 % 0 mm
04:48 20.2 °C 9.1 °C 1014.1 hPa Calm   1.6 km/h 49 % 0 mm
04:50 20.1 °C 9 °C 1014.1 hPa Calm     49 % 0 mm
04:51 20 °C 8.9 °C 1014.1 hPa Calm     49 % 0 mm
04:52 20 °C 8.9 °C 1014.1 hPa Calm     49 % 0 mm
04:54 19.9 °C 8.9 °C 1014.1 hPa Calm     49 % 0 mm
04:55 19.9 °C 9.2 °C 1014.1 hPa Calm     50 % 0 mm
04:56 19.8 °C 9.1 °C 1014.1 hPa West 2.4 km/h 3.7 km/h 50 % 0 mm
04:57 19.8 °C 9.1 °C 1014.1 hPa Calm   3.7 km/h 50 % 0 mm
04:58 19.7 °C 9.3 °C 1014.1 hPa Calm     51 % 0 mm
05:00 19.7 °C 9.2 °C 1014.1 hPa Calm     51 % 0 mm
05:01 19.6 °C 9.2 °C 1014.1 hPa Calm     51 % 0 mm
05:02 19.6 °C 9.2 °C 1014.1 hPa Calm     51 % 0 mm
05:03 19.5 °C 9.1 °C 1014.1 hPa Calm     51 % 0 mm
05:04 19.5 °C 9.1 °C 1014.1 hPa Calm     51 % 0 mm
05:06 19.4 °C 9.3 °C 1014.1 hPa West 2.1 km/h 3.7 km/h 52 % 0 mm
05:07 19.4 °C 9.3 °C 1014.1 hPa North 1.1 km/h 3.7 km/h 52 % 0 mm
05:08 19.4 °C 9.3 °C 1013.8 hPa West 0.3 km/h 1.9 km/h 52 % 0 mm
05:09 19.3 °C 9.2 °C 1013.8 hPa Calm     52 % 0 mm
05:10 19.3 °C 9.2 °C 1013.8 hPa Calm   1.6 km/h 52 % 0 mm
05:11 19.3 °C 9.2 °C 1014.1 hPa West 1 km/h 1.9 km/h 52 % 0 mm
05:12 19.3 °C 9.2 °C 1014.1 hPa West 1.3 km/h 1.9 km/h 52 % 0 mm
05:13 19.3 °C 9.2 °C 1013.8 hPa West 0.5 km/h 1.9 km/h 52 % 0 mm
05:14 19.3 °C 9.4 °C 1013.8 hPa Calm   1.9 km/h 53 % 0 mm
05:15 19.2 °C 9.1 °C 1013.8 hPa West 0.5 km/h   52 % 0 mm
05:16 19.2 °C 9.4 °C 1014.1 hPa Calm   1.9 km/h 53 % 0 mm
05:17 19.2 °C 9.3 °C 1014.1 hPa Calm   1.9 km/h 53 % 0 mm
05:18 19.1 °C 9.3 °C 1014.1 hPa West 1 km/h 1.9 km/h 53 % 0 mm
05:19 19.1 °C 9.3 °C 1014.1 hPa West 0.2 km/h 1.9 km/h 53 % 0 mm
05:20 19.1 °C 9.3 °C 1014.1 hPa North 0.5 km/h 1.9 km/h 53 % 0 mm
05:21 19 °C 9.2 °C 1014.1 hPa West 0.8 km/h 1.9 km/h 53 % 0 mm
05:24 18.9 °C 9.2 °C 1013.8 hPa WNW 1.8 km/h 1.9 km/h 53 % 0 mm
05:25 18.9 °C 9.1 °C 1013.8 hPa West 2.7 km/h 5.6 km/h 53 % 0 mm
05:26 18.9 °C 9.1 °C 1013.8 hPa West 0.5 km/h 1.9 km/h 53 % 0 mm
05:27 18.9 °C 9.1 °C 1013.8 hPa Calm     53 % 0 mm
05:28 18.9 °C 9.4 °C 1013.8 hPa Calm     54 % 0 mm
05:29 18.8 °C 9.1 °C 1013.8 hPa Calm     53 % 0 mm
05:30 18.8 °C 9.1 °C 1013.8 hPa Calm     53 % 0 mm
05:31 18.8 °C 9.1 °C 1013.8 hPa Calm     53 % 0 mm
05:32 18.8 °C 9.3 °C 1013.4 hPa Calm     54 % 0 mm
05:33 18.8 °C 9.3 °C 1013.4 hPa Calm     54 % 0 mm
05:35 18.8 °C 9.3 °C 1013.4 hPa Calm     54 % 0 mm
05:36 18.8 °C 9.3 °C 1013.4 hPa West 1.6 km/h 3.7 km/h 54 % 0 mm
05:37 18.8 °C 9.3 °C 1013.4 hPa Calm   1.9 km/h 54 % 0 mm
05:38 18.8 °C 9.6 °C 1013.4 hPa Calm     55 % 0 mm
05:39 18.8 °C 9.6 °C 1013.4 hPa Calm     55 % 0 mm
05:40 18.7 °C 9.5 °C 1013.4 hPa Calm     55 % 0 mm
05:41 18.7 °C 9.2 °C 1013.4 hPa Calm   1.9 km/h 54 % 0 mm
05:44 18.7 °C 9.2 °C 1013.4 hPa Calm     54 % 0 mm
05:46 18.7 °C 9.2 °C 1013.4 hPa Calm     54 % 0 mm
05:47 18.7 °C 9.2 °C 1013.4 hPa Calm     54 % 0 mm
05:48 18.7 °C 9.2 °C 1013.4 hPa West 1 km/h 3.2 km/h 54 % 0 mm
05:50 18.7 °C 9.2 °C 1013.4 hPa North 2.9 km/h 3.7 km/h 54 % 0 mm
05:51 18.7 °C 9.2 °C 1013.4 hPa West 3.2 km/h 5.6 km/h 54 % 0 mm
05:52 18.7 °C 9.2 °C 1013.4 hPa West 2.9 km/h 5.6 km/h 54 % 0 mm
05:53 18.7 °C 9.2 °C 1013.4 hPa West 3.7 km/h 5.6 km/h 54 % 0 mm
05:54 18.8 °C 9.3 °C 1013.4 hPa North 3.4 km/h 5.6 km/h 54 % 0 mm
05:55 18.8 °C 9.3 °C 1013.4 hPa North 3.9 km/h 5.6 km/h 54 % 0 mm
05:56 18.8 °C 9.1 °C 1013.4 hPa West 2.7 km/h 5.6 km/h 53 % 0 mm
05:57 18.8 °C 9.3 °C 1013.4 hPa West 0.3 km/h 1.9 km/h 54 % 0 mm
05:58 18.9 °C 9.4 °C 1013.1 hPa West 1.1 km/h 3.7 km/h 54 % 0 mm
05:59 18.9 °C 9.4 °C 1013.4 hPa West 1.4 km/h 4.8 km/h 54 % 0 mm
06:00 18.9 °C 9.1 °C 1013.1 hPa West 3.4 km/h 5.6 km/h 53 % 0 mm
06:01 18.9 °C 9.2 °C 1013.1 hPa West 3.4 km/h 5.6 km/h 53 % 0 mm
06:02 18.9 °C 9.2 °C 1013.1 hPa West 4.2 km/h 5.6 km/h 53 % 0 mm
06:03 19 °C 8.9 °C 1013.1 hPa West 3.9 km/h 5.6 km/h 52 % 0 mm
06:04 19.1 °C 8.9 °C 1013.1 hPa WNW 3.5 km/h 5.6 km/h 52 % 0 mm
06:05 19.1 °C 9 °C 1013.1 hPa West 1.4 km/h 3.7 km/h 52 % 0 mm
06:07 19.2 °C 8.8 °C 1013.1 hPa Calm     51 % 0 mm
06:08 19.2 °C 8.8 °C 1013.1 hPa Calm     51 % 0 mm
06:09 19.3 °C 8.9 °C 1013.1 hPa Calm     51 % 0 mm
06:10 19.3 °C 8.9 °C 1013.1 hPa North 0.8 km/h 4.8 km/h 51 % 0 mm
06:11 19.3 °C 8.9 °C 1013.4 hPa North 2.6 km/h 4.8 km/h 51 % 0 mm
06:13 19.4 °C 8.7 °C 1013.4 hPa West 3.1 km/h 5.6 km/h 50 % 0 mm
06:14 19.4 °C 8.7 °C 1013.4 hPa North 2.9 km/h 5.6 km/h 50 % 0 mm
06:15 19.5 °C 8.8 °C 1013.4 hPa West 2.3 km/h 3.7 km/h 50 % 0 mm
06:16 19.6 °C 8.8 °C 1013.4 hPa West 3.1 km/h 3.7 km/h 50 % 0 mm
06:17 19.6 °C 8.9 °C 1013.4 hPa West 3.9 km/h 6.4 km/h 50 % 0 mm
06:18 19.6 °C 8.6 °C 1013.4 hPa West 5 km/h 5.6 km/h 49 % 0 mm
06:19 19.7 °C 8.7 °C 1013.8 hPa West 2.6 km/h 5.6 km/h 49 % 0 mm
06:20 19.8 °C 8.8 °C 1013.8 hPa West 1.6 km/h 3.7 km/h 49 % 0 mm
06:21 19.8 °C 8.8 °C 1013.4 hPa Calm     49 % 0 mm
06:22 19.9 °C 8.8 °C 1013.4 hPa Calm     49 % 0 mm
06:23 19.9 °C 8.8 °C 1013.4 hPa West 0.8 km/h 3.7 km/h 49 % 0 mm
06:25 19.9 °C 8.8 °C 1013.4 hPa Calm     49 % 0 mm
06:26 19.9 °C 8.8 °C 1013.4 hPa Calm     49 % 0 mm
06:27 19.9 °C 8.8 °C 1013.4 hPa Calm     49 % 0 mm
06:31 19.9 °C 8.6 °C 1013.4 hPa Calm     48 % 0 mm
06:32 19.9 °C 8.8 °C 1013.4 hPa West 1.1 km/h 3.7 km/h 49 % 0 mm
06:33 19.9 °C 9.2 °C 1013.8 hPa West 3.9 km/h 5.6 km/h 50 % 0 mm
06:35 19.9 °C 8.8 °C 1013.4 hPa West 4.5 km/h 5.6 km/h 49 % 0 mm
06:36 19.9 °C 8.8 °C 1013.4 hPa West 4.7 km/h 8 km/h 49 % 0 mm
06:37 19.9 °C 8.6 °C 1013.4 hPa North 5.5 km/h 7.4 km/h 48 % 0 mm
06:39 19.9 °C 8.3 °C 1013.4 hPa West 4.7 km/h 7.4 km/h 47 % 0 mm
06:40 20 °C 8.3 °C 1013.4 hPa West 3.5 km/h 5.6 km/h 47 % 0 mm
06:42 20.2 °C 8.6 °C 1013.4 hPa North 3.2 km/h 5.6 km/h 47 % 0 mm
06:45 20.4 °C 8.4 °C 1013.1 hPa West 5.1 km/h 9.7 km/h 46 % 0 mm
06:46 20.4 °C 8.4 °C 1013.1 hPa West 6 km/h 9.3 km/h 46 % 0 mm
06:48 20.6 °C 8.6 °C 1013.4 hPa WNW 3.1 km/h 7.4 km/h 46 % 0 mm
06:49 20.6 °C 8.8 °C 1013.4 hPa WNW 3.9 km/h 5.6 km/h 47 % 0 mm
06:51 20.6 °C 8.9 °C 1013.4 hPa West 6.8 km/h 8 km/h 47 % 0 mm
06:53 20.7 °C 8.6 °C 1013.4 hPa WNW 5.8 km/h 7.4 km/h 46 % 0 mm
06:54 20.7 °C 8.7 °C 1013.4 hPa WNW 5.3 km/h 9.3 km/h 46 % 0 mm
06:55 20.8 °C 8.7 °C 1013.4 hPa West 4.5 km/h 5.6 km/h 46 % 0 mm
06:56 20.8 °C 8.4 °C 1013.4 hPa WNW 3.9 km/h 5.6 km/h 45 % 0 mm
06:57 20.8 °C 8.8 °C 1013.4 hPa WNW 3.9 km/h 7.4 km/h 46 % 0 mm
06:58 20.8 °C 8.8 °C 1013.4 hPa North 6 km/h 7.4 km/h 46 % 0 mm
06:59 20.9 °C 8.6 °C 1013.4 hPa WNW 6.8 km/h 11.1 km/h 45 % 0 mm
07:01 21 °C 8.6 °C 1013.8 hPa WNW 5.5 km/h 9.3 km/h 45 % 0 mm
07:02 21 °C 8.6 °C 1013.8 hPa WNW 5.1 km/h 5.6 km/h 45 % 0 mm
07:04 21.1 °C 8.7 °C 1014.1 hPa WNW 6.1 km/h 9.3 km/h 45 % 0 mm
07:05 21.1 °C 8.4 °C 1014.1 hPa North 6.4 km/h 9.3 km/h 44 % 0 mm
07:06 21.2 °C 8.1 °C 1014.1 hPa WNW 8.2 km/h 13 km/h 43 % 0 mm
07:07 21.3 °C 8.2 °C 1014.1 hPa WNW 6.3 km/h 11.1 km/h 43 % 0 mm
07:09 21.4 °C 8.3 °C 1014.1 hPa North 4.8 km/h 9.3 km/h 43 % 0 mm
07:10 21.4 °C 8.3 °C 1014.1 hPa WNW 6.9 km/h 11.1 km/h 43 % 0 mm
07:11 21.6 °C 8.4 °C 1014.1 hPa North 5.1 km/h 9.3 km/h 43 % 0 mm
07:13 21.7 °C 8.6 °C 1014.1 hPa WNW 5.3 km/h 5.6 km/h 43 % 0 mm
07:14 21.7 °C 8.6 °C 1014.4 hPa WNW 6 km/h 7.4 km/h 43 % 0 mm
07:15 21.7 °C 8.6 °C 1014.1 hPa WNW 5.6 km/h 9.3 km/h 43 % 0 mm
07:18 21.7 °C 8.2 °C 1014.4 hPa North 2.1 km/h 5.6 km/h 42 % 0 mm
07:20 21.7 °C 8.6 °C 1014.4 hPa North 2.4 km/h 3.7 km/h 43 % 0 mm
07:21 21.7 °C 8.6 °C 1014.4 hPa WNW 1.1 km/h 3.7 km/h 43 % 0 mm
07:23 21.7 °C 8.6 °C 1014.1 hPa WNW 1.6 km/h 3.7 km/h 43 % 0 mm
07:24 21.7 °C 8.6 °C 1014.1 hPa North 1.6 km/h 3.7 km/h 43 % 0 mm
07:25 21.7 °C 8.6 °C 1014.1 hPa Calm   3.7 km/h 43 % 0 mm
07:26 21.7 °C 8.6 °C 1014.1 hPa WNW 0.5 km/h 3.2 km/h 43 % 0 mm
07:27 21.6 °C 8.8 °C 1014.1 hPa WNW 3.9 km/h 5.6 km/h 44 % 0 mm
07:28 21.6 °C 8.8 °C 1014.1 hPa WNW 3.1 km/h 5.6 km/h 44 % 0 mm
07:29 21.6 °C 9.1 °C 1014.1 hPa WNW 0.8 km/h 3.7 km/h 45 % 0 mm
07:30 21.5 °C 9.1 °C 1014.1 hPa Calm     45 % 0 mm
07:31 21.5 °C 9.1 °C 1014.4 hPa WNW 1.6 km/h 3.7 km/h 45 % 0 mm
07:33 21.4 °C 8.9 °C 1014.1 hPa WNW 1.6 km/h 4.8 km/h 45 % 0 mm
07:34 21.3 °C 9.2 °C 1014.1 hPa WNW 4.7 km/h 5.6 km/h 46 % 0 mm
07:35 21.3 °C 9.2 °C 1014.1 hPa WNW 5 km/h 6.4 km/h 46 % 0 mm
07:36 21.3 °C 9.2 °C 1014.1 hPa WNW 5 km/h 7.4 km/h 46 % 0 mm
07:37 21.2 °C 9.1 °C 1014.1 hPa WNW 3.9 km/h 5.6 km/h 46 % 0 mm
07:38 21.2 °C 9.4 °C 1014.1 hPa WNW 3.1 km/h 5.6 km/h 47 % 0 mm
07:41 21.1 °C 9.3 °C 1014.1 hPa WNW 3.5 km/h 5.6 km/h 47 % 0 mm
07:42 21.1 °C 9.3 °C 1014.1 hPa WNW 1.6 km/h 5.6 km/h 47 % 0 mm
07:43 21.1 °C 9.3 °C 1014.1 hPa Calm   3.7 km/h 47 % 0 mm
07:44 21 °C 9.3 °C 1014.1 hPa Calm     47 % 0 mm
07:46 21 °C 9.6 °C 1014.1 hPa Calm     48 % 0 mm
07:49 20.9 °C 9.5 °C 1013.8 hPa Calm     48 % 0 mm
07:50 20.9 °C 9.8 °C 1014.1 hPa Calm     49 % 0 mm
07:51 20.9 °C 9.4 °C 1014.1 hPa Calm     48 % 0 mm
07:52 20.9 °C 9.4 °C 1014.1 hPa Calm     48 % 0 mm
07:53 20.8 °C 9.4 °C 1014.1 hPa WNW 0.2 km/h 3.2 km/h 48 % 0 mm
07:55 20.8 °C 9.7 °C 1013.8 hPa WNW 1.8 km/h 3.7 km/h 49 % 0 mm
07:57 20.8 °C 9.4 °C 1014.1 hPa North 1.3 km/h 3.7 km/h 48 % 0 mm
07:58 20.7 °C 9.3 °C 1013.8 hPa WNW 2.7 km/h 3.7 km/h 48 % 0 mm
07:59 20.7 °C 9.3 °C 1014.1 hPa WNW 3.7 km/h 5.6 km/h 48 % 0 mm
08:00 20.7 °C 9 °C 1013.8 hPa WNW 3.5 km/h 5.6 km/h 47 % 0 mm
08:01 20.7 °C 9 °C 1014.1 hPa Calm   5.6 km/h 47 % 0 mm
08:02 20.7 °C 9 °C 1014.1 hPa Calm     47 % 0 mm
08:05 20.8 °C 9.1 °C 1014.1 hPa Calm     47 % 0 mm
08:06 20.8 °C 9.7 °C 1014.1 hPa Calm     49 % 0 mm
08:07 20.8 °C 9.4 °C 1014.1 hPa Calm     48 % 0 mm
08:08 20.8 °C 9.4 °C 1014.1 hPa Calm     48 % 0 mm
08:11 20.9 °C 10.4 °C 1014.1 hPa Calm     51 % 0 mm
08:13 20.8 °C 10.3 °C 1014.4 hPa Calm     51 % 0 mm
08:15 20.8 °C 10 °C 1014.4 hPa WNW 0.5 km/h 3.2 km/h 50 % 0 mm
08:16 20.8 °C 9.7 °C 1014.4 hPa WNW 1.6 km/h 3.7 km/h 49 % 0 mm
08:17 20.8 °C 9.7 °C 1014.4 hPa North 1.9 km/h 3.7 km/h 49 % 0 mm
08:18 20.8 °C 9.4 °C 1014.4 hPa North 2.7 km/h 5.6 km/h 48 % 0 mm
08:19 20.8 °C 9.4 °C 1014.4 hPa WNW 2.3 km/h 4.8 km/h 48 % 0 mm
08:25 20.8 °C 9.7 °C 1014.4 hPa WNW 2.4 km/h 3.2 km/h 49 % 0 mm
08:26 20.9 °C 9.8 °C 1014.4 hPa North 2.1 km/h 5.6 km/h 49 % 0 mm
08:27 20.9 °C 10.1 °C 1014.8 hPa Calm   1.9 km/h 50 % 0 mm
08:29 20.9 °C 10.1 °C 1014.8 hPa WNW 1.6 km/h 3.7 km/h 50 % 0 mm
08:30 20.9 °C 9.8 °C 1014.8 hPa WNW 1.9 km/h 3.7 km/h 49 % 0 mm
08:31 20.9 °C 9.8 °C 1014.8 hPa WNW 2.4 km/h 3.7 km/h 49 % 0 mm
08:33 21.1 °C 9.9 °C 1014.8 hPa WNW 3.7 km/h 5.6 km/h 49 % 0 mm
08:34 21.1 °C 9.7 °C 1014.8 hPa WNW 2.3 km/h 3.7 km/h 48 % 0 mm
08:35 21.2 °C 9.7 °C 1014.8 hPa North 4.7 km/h 4.8 km/h 48 % 0 mm
08:36 21.2 °C 9.7 °C 1014.8 hPa WNW 5.1 km/h 5.6 km/h 48 % 0 mm
08:37 21.2 °C 9.8 °C 1014.8 hPa North 4.7 km/h 5.6 km/h 48 % 0 mm
08:38 21.3 °C 9.8 °C 1014.4 hPa WNW 5.1 km/h 5.6 km/h 48 % 0 mm
08:39 21.3 °C 9.5 °C 1014.8 hPa WNW 4.8 km/h 7.4 km/h 47 % 0 mm
08:40 21.3 °C 9.6 °C 1014.8 hPa WNW 2.7 km/h 5.6 km/h 47 % 0 mm
08:41 21.4 °C 9.6 °C 1014.8 hPa WNW 2.7 km/h 5.6 km/h 47 % 0 mm
08:42 21.4 °C 9.6 °C 1014.8 hPa North 2.3 km/h 5.6 km/h 47 % 0 mm
08:43 21.5 °C 9.7 °C 1014.8 hPa North 5.6 km/h 5.6 km/h 47 % 0 mm
08:44 21.5 °C 9.7 °C 1014.8 hPa WNW 5.6 km/h 5.6 km/h 47 % 0 mm
08:45 21.6 °C 9.8 °C 1014.8 hPa WNW 4.8 km/h 5.6 km/h 47 % 0 mm
08:47 21.7 °C 10.2 °C 1014.8 hPa WNW 0.2 km/h 1.9 km/h 48 % 0 mm
08:48 21.7 °C 9.9 °C 1014.8 hPa North 0.3 km/h 3.7 km/h 47 % 0 mm
08:49 21.7 °C 9.9 °C 1014.8 hPa North 0.6 km/h 3.7 km/h 47 % 0 mm
08:50 21.8 °C 9.9 °C 1014.8 hPa Calm     47 % 0 mm
08:51 21.8 °C 10 °C 1014.4 hPa Calm     47 % 0 mm
08:52 21.9 °C 9.7 °C 1014.4 hPa North 1.9 km/h 3.7 km/h 46 % 0 mm
08:53 21.9 °C 10.1 °C 1014.4 hPa WNW 2.4 km/h 3.7 km/h 47 % 0 mm
08:54 21.9 °C 10.1 °C 1014.4 hPa WNW 2.4 km/h 3.7 km/h 47 % 0 mm
08:56 21.9 °C 10.1 °C 1014.4 hPa North 3.1 km/h 5.6 km/h 47 % 0 mm
08:57 21.9 °C 10.1 °C 1014.4 hPa WNW 0.5 km/h 1.9 km/h 47 % 0 mm
08:58 21.9 °C 10.1 °C 1014.4 hPa WNW 0.6 km/h 1.9 km/h 47 % 0 mm
08:59 21.9 °C 10.1 °C 1014.8 hPa Calm   1.9 km/h 47 % 0 mm
09:00 21.9 °C 10.1 °C 1014.8 hPa Calm   1.9 km/h 47 % 0 mm
09:01 21.9 °C 10.1 °C 1014.8 hPa WNW 4 km/h 5.6 km/h 47 % 0 mm
09:02 21.9 °C 10.1 °C 1014.8 hPa WNW 3.7 km/h 5.6 km/h 47 % 0 mm
09:03 21.9 °C 10.1 °C 1014.8 hPa North 3.5 km/h 5.6 km/h 47 % 0 mm
09:04 21.9 °C 10.1 °C 1014.8 hPa WNW 2.1 km/h 5.6 km/h 47 % 0 mm
09:05 21.9 °C 10.1 °C 1014.8 hPa WNW 0.3 km/h 1.9 km/h 47 % 0 mm
09:06 21.9 °C 10.1 °C 1014.8 hPa WNW 0.5 km/h 1.9 km/h 47 % 0 mm
09:08 21.9 °C 10.4 °C 1014.4 hPa WNW 2.3 km/h 5.6 km/h 48 % 0 mm
09:09 21.9 °C 10.1 °C 1014.4 hPa WNW 3.1 km/h 5.6 km/h 47 % 0 mm
09:10 21.8 °C 10.3 °C 1014.4 hPa WNW 2.3 km/h 5.6 km/h 48 % 0 mm
09:11 21.9 °C 10.7 °C 1014.4 hPa WNW 1.1 km/h 3.7 km/h 49 % 0 mm
09:12 21.8 °C 10.6 °C 1014.4 hPa Calm   3.7 km/h 49 % 0 mm
09:14 21.8 °C 10 °C 1014.4 hPa WNW 2.1 km/h 5.6 km/h 47 % 0 mm
09:15 21.8 °C 10.3 °C 1014.8 hPa WNW 2.1 km/h 5.6 km/h 48 % 0 mm
09:16 21.8 °C 10 °C 1014.8 hPa North 2.7 km/h 3.7 km/h 47 % 0 mm
09:17 21.8 °C 10 °C 1014.8 hPa North 2.3 km/h 5.6 km/h 47 % 0 mm
09:19 21.9 °C 10.1 °C 1014.8 hPa WNW 2.6 km/h 3.7 km/h 47 % 0 mm
09:20 21.9 °C 10.1 °C 1014.8 hPa WNW 3.9 km/h 5.6 km/h 47 % 0 mm
09:22 21.9 °C 10.1 °C 1014.8 hPa WNW 3.2 km/h 5.6 km/h 47 % 0 mm
09:23 21.9 °C 10.1 °C 1014.8 hPa WNW 4.2 km/h 5.6 km/h 47 % 0 mm
09:25 22 °C 10.2 °C 1014.8 hPa WNW 5.3 km/h 9.7 km/h 47 % 0 mm
09:26 22 °C 10.2 °C 1014.8 hPa WNW 6.1 km/h 11.3 km/h 47 % 0 mm
09:27 22.1 °C 9.9 °C 1014.8 hPa WNW 6.1 km/h 11.1 km/h 46 % 0 mm
09:28 22.1 °C 9.6 °C 1014.4 hPa WNW 6.3 km/h 11.1 km/h 45 % 0 mm
09:29 22.2 °C 10 °C 1014.4 hPa WNW 5.6 km/h 11.1 km/h 46 % 0 mm
09:30 22.2 °C 9.7 °C 1014.4 hPa WNW 6.6 km/h 9.3 km/h 45 % 0 mm
09:31 22.3 °C 9.8 °C 1014.4 hPa WNW 6.1 km/h 9.3 km/h 45 % 0 mm
09:32 22.3 °C 9.8 °C 1014.4 hPa WNW 5 km/h 5.6 km/h 45 % 0 mm
09:33 22.4 °C 9.9 °C 1014.4 hPa North 2.9 km/h 5.6 km/h 45 % 0 mm
09:34 22.4 °C 9.9 °C 1014.4 hPa WNW 3.2 km/h 5.6 km/h 45 % 0 mm
09:35 22.5 °C 9.9 °C 1014.4 hPa WNW 3.4 km/h 5.6 km/h 45 % 0 mm
09:36 22.6 °C 10 °C 1014.4 hPa WNW 4.7 km/h 6.4 km/h 45 % 0 mm
09:37 22.6 °C 9.7 °C 1014.4 hPa WNW 4.2 km/h 7.4 km/h 44 % 0 mm
09:40 22.7 °C 9.8 °C 1014.4 hPa WNW 3.5 km/h 11.1 km/h 44 % 0 mm
09:41 22.8 °C 9.9 °C 1014.4 hPa WNW 5 km/h 9.3 km/h 44 % 0 mm
09:42 22.8 °C 9.6 °C 1014.4 hPa NW 6.8 km/h 9.7 km/h 43 % 0 mm
09:43 22.8 °C 9.6 °C 1014.4 hPa WNW 6.9 km/h 11.1 km/h 43 % 0 mm
09:45 22.9 °C 9.7 °C 1014.4 hPa WNW 4.8 km/h 9.3 km/h 43 % 0 mm
09:46 22.9 °C 9.7 °C 1014.4 hPa NW 5.1 km/h 5.6 km/h 43 % 0 mm
09:47 23 °C 9.7 °C 1014.4 hPa NW 3.1 km/h 9.7 km/h 43 % 0 mm
09:48 23.1 °C 9.4 °C 1014.4 hPa North 8.5 km/h 12.9 km/h 42 % 0 mm
09:49 23.1 °C 9.5 °C 1014.4 hPa NW 7.9 km/h 13 km/h 42 % 0 mm
09:50 23.1 °C 9.5 °C 1014.4 hPa NW 6.1 km/h 13 km/h 42 % 0 mm
09:51 23.1 °C 9.5 °C 1014.4 hPa NW 5.6 km/h 11.1 km/h 42 % 0 mm
09:52 23.2 °C 9.6 °C 1014.8 hPa NW 8 km/h 9.7 km/h 42 % 0 mm
09:53 23.2 °C 9.2 °C 1014.4 hPa NW 5.6 km/h 9.3 km/h 41 % 0 mm
09:54 23.2 °C 9.2 °C 1014.4 hPa North 4.3 km/h 9.3 km/h 41 % 0 mm
09:55 23.2 °C 9.2 °C 1014.4 hPa NW 6.9 km/h 11.1 km/h 41 % 0 mm
09:56 23.2 °C 9.2 °C 1014.4 hPa NW 8.2 km/h 13 km/h 41 % 0 mm
09:57 23.3 °C 9.3 °C 1014.4 hPa NW 6.4 km/h 9.3 km/h 41 % 0 mm
09:58 23.3 °C 9.3 °C 1014.4 hPa North 6.1 km/h 9.3 km/h 41 % 0 mm
09:59 23.3 °C 9.3 °C 1014.8 hPa NW 9.5 km/h 13 km/h 41 % 0 mm
10:01 23.3 °C 9.3 °C 1014.8 hPa NW 10 km/h 14.8 km/h 41 % 0 mm
10:02 23.3 °C 9.3 °C 1014.8 hPa NW 7.4 km/h 16.7 km/h 41 % 0 mm
10:03 23.3 °C 9.3 °C 1014.8 hPa NW 7.4 km/h 16.7 km/h 41 % 0 mm
10:04 23.3 °C 9.3 °C 1014.8 hPa NW 6.3 km/h 11.1 km/h 41 % 0 mm
10:05 23.3 °C 9.3 °C 1014.8 hPa North 5.1 km/h 7.4 km/h 41 % 0 mm
10:07 23.4 °C 9.4 °C 1014.8 hPa NW 7.1 km/h 11.3 km/h 41 % 0 mm
10:08 23.4 °C 9.4 °C 1014.8 hPa NW 7.6 km/h 11.3 km/h 41 % 0 mm
10:09 23.4 °C 9.4 °C 1014.8 hPa NW 8.7 km/h 11.1 km/h 41 % 0 mm
10:10 23.4 °C 9.4 °C 1014.8 hPa NW 6 km/h 13 km/h 41 % 0 mm
10:11 23.4 °C 9.4 °C 1014.8 hPa NW 2.9 km/h 6.4 km/h 41 % 0 mm
10:12 23.4 °C 9.4 °C 1014.8 hPa NW 5.8 km/h 11.3 km/h 41 % 0 mm
10:13 23.4 °C 9.4 °C 1014.4 hPa North 5.6 km/h 9.3 km/h 41 % 0 mm
10:14 23.5 °C 9.5 °C 1014.4 hPa NW 8.7 km/h 9.3 km/h 41 % 0 mm
10:15 23.5 °C 9.1 °C 1014.4 hPa North 6.9 km/h 13 km/h 40 % 0 mm
10:16 23.6 °C 9.2 °C 1014.4 hPa NNW 5.3 km/h 13 km/h 40 % 0 mm
10:17 23.6 °C 9.2 °C 1014.4 hPa NNW 5.6 km/h 13 km/h 40 % 0 mm
10:19 23.7 °C 9.6 °C 1014.4 hPa NNW 6.6 km/h 13 km/h 41 % 0 mm
10:20 23.7 °C 9.7 °C 1014.4 hPa NNW 6 km/h 13 km/h 41 % 0 mm
10:21 23.8 °C 9.4 °C 1014.4 hPa NNW 8.7 km/h 11.1 km/h 40 % 0 mm
10:22 23.9 °C 9.4 °C 1014.4 hPa NNW 8.4 km/h 13 km/h 40 % 0 mm
10:24 23.9 °C 9.5 °C 1014.4 hPa North 13 km/h 18.5 km/h 40 % 0 mm
10:25 23.9 °C 9.5 °C 1014.4 hPa North 14.3 km/h 18.5 km/h 40 % 0 mm
10:26 23.9 °C 9.4 °C 1014.4 hPa NNW 10.3 km/h 18.5 km/h 40 % 0 mm
10:27 23.8 °C 9.4 °C 1014.1 hPa NNW 6.1 km/h 13 km/h 40 % 0 mm
10:28 23.8 °C 9.4 °C 1014.1 hPa NNW 11.1 km/h 16.7 km/h 40 % 0 mm
10:29 23.8 °C 9.4 °C 1014.1 hPa North 9.7 km/h 16.7 km/h 40 % 0 mm
10:30 23.7 °C 9.7 °C 1014.4 hPa North 8 km/h 14.5 km/h 41 % 0 mm
10:33 23.7 °C 9.6 °C 1014.1 hPa NNW 7.7 km/h 11.1 km/h 41 % 0 mm
10:34 23.7 °C 9.6 °C 1014.4 hPa NNW 8.4 km/h 16.7 km/h 41 % 0 mm
10:36 23.6 °C 9.6 °C 1014.4 hPa NNW 9 km/h 13 km/h 41 % 0 mm
10:37 23.6 °C 9.6 °C 1014.1 hPa NNW 9 km/h 11.3 km/h 41 % 0 mm
10:38 23.6 °C 9.6 °C 1014.1 hPa North 9.5 km/h 11.1 km/h 41 % 0 mm
10:39 23.6 °C 9.9 °C 1014.1 hPa North 9.5 km/h 14.5 km/h 42 % 0 mm
10:40 23.6 °C 9.9 °C 1014.1 hPa North 9 km/h 13 km/h 42 % 0 mm
10:41 23.6 °C 9.9 °C 1014.1 hPa North 10.8 km/h 14.8 km/h 42 % 0 mm
10:42 23.6 °C 9.9 °C 1014.1 hPa North 9.3 km/h 14.8 km/h 42 % 0 mm
10:43 23.6 °C 9.9 °C 1014.1 hPa North 8 km/h 11.1 km/h 42 % 0 mm
10:44 23.6 °C 9.9 °C 1014.4 hPa North 9.8 km/h 14.8 km/h 42 % 0 mm
10:45 23.6 °C 9.9 °C 1014.1 hPa North 7.4 km/h 13 km/h 42 % 0 mm
10:46 23.7 °C 10 °C 1014.1 hPa North 6.8 km/h 9.3 km/h 42 % 0 mm
10:49 23.8 °C 10.1 °C 1014.1 hPa North 6.4 km/h 9.3 km/h 42 % 0 mm
10:51 23.9 °C 10.2 °C 1014.1 hPa NNW 8.7 km/h 14.8 km/h 42 % 0 mm
10:52 23.9 °C 10.2 °C 1014.1 hPa NNW 6.6 km/h 12.9 km/h 42 % 0 mm
10:53 23.9 °C 10.2 °C 1014.1 hPa NNW 8 km/h 13 km/h 42 % 0 mm
10:54 23.9 °C 10.2 °C 1014.1 hPa NNW 4.2 km/h 7.4 km/h 42 % 0 mm
10:56 24 °C 10.3 °C 1014.1 hPa NNW 4.5 km/h 4.8 km/h 42 % 0 mm
10:57 24 °C 9.9 °C 1014.1 hPa North 5.8 km/h 7.4 km/h 41 % 0 mm
10:58 24.1 °C 10 °C 1014.1 hPa NNW 5.8 km/h 7.4 km/h 41 % 0 mm
10:59 24.1 °C 10.3 °C 1014.1 hPa NNW 2.1 km/h 11.1 km/h 42 % 0 mm
11:00 24.1 °C 10.4 °C 1014.1 hPa North 2.4 km/h 5.6 km/h 42 % 0 mm
11:01 24.1 °C 10.4 °C 1013.8 hPa North 3.4 km/h 5.6 km/h 42 % 0 mm
11:02 24.2 °C 10.4 °C 1013.8 hPa NNW 4.3 km/h 5.6 km/h 42 % 0 mm
11:03 24.2 °C 10.4 °C 1013.8 hPa NNW 3.7 km/h 5.6 km/h 42 % 0 mm
11:04 24.2 °C 10.1 °C 1013.8 hPa NNW 4 km/h 5.6 km/h 41 % 0 mm
11:05 24.2 °C 10.5 °C 1013.8 hPa NNW 2.9 km/h 5.6 km/h 42 % 0 mm
11:06 24.3 °C 10.2 °C 1013.8 hPa North 4 km/h 5.6 km/h 41 % 0 mm
11:07 24.3 °C 10.2 °C 1013.8 hPa North 3.2 km/h 5.6 km/h 41 % 0 mm
11:08 24.4 °C 10.3 °C 1013.8 hPa North 1.4 km/h 3.7 km/h 41 % 0 mm
11:09 24.4 °C 10.7 °C 1013.8 hPa North 3.4 km/h 5.6 km/h 42 % 0 mm
11:10 24.5 °C 10.4 °C 1013.8 hPa North 2.7 km/h 5.6 km/h 41 % 0 mm
11:11 24.5 °C 10.4 °C 1013.8 hPa NNW 3.5 km/h 5.6 km/h 41 % 0 mm
11:12 24.6 °C 10.4 °C 1013.8 hPa NNW 4.3 km/h 5.6 km/h 41 % 0 mm
11:14 24.7 °C 10.6 °C 1013.8 hPa NNW 3.2 km/h 5.6 km/h 41 % 0 mm
11:15 24.7 °C 10.6 °C 1013.8 hPa NNW 3.1 km/h 5.6 km/h 41 % 0 mm
11:16 24.7 °C 10.6 °C 1013.8 hPa NNW 3.4 km/h 5.6 km/h 41 % 0 mm
11:17 24.8 °C 10.6 °C 1014.1 hPa NNW 3.5 km/h 5.6 km/h 41 % 0 mm
11:18 24.8 °C 10.3 °C 1013.8 hPa NNW 2.4 km/h 5.6 km/h 40 % 0 mm
11:19 24.8 °C 10.6 °C 1013.8 hPa NNW 0.5 km/h 1.9 km/h 41 % 0 mm
11:20 24.8 °C 10.6 °C 1013.8 hPa North 0.6 km/h 1.9 km/h 41 % 0 mm
11:21 24.8 °C 10.6 °C 1013.8 hPa NNW 0.6 km/h 3.2 km/h 41 % 0 mm
11:23 24.8 °C 10.3 °C 1013.8 hPa North 1.8 km/h 3.7 km/h 40 % 0 mm
11:24 24.9 °C 10.7 °C 1013.8 hPa NNW 1.8 km/h 3.7 km/h 41 % 0 mm
11:27 25 °C 10.8 °C 1013.8 hPa NNW 0.2 km/h 1.9 km/h 41 % 0 mm
11:28 25 °C 10.8 °C 1013.8 hPa NNW 0.2 km/h 1.9 km/h 41 % 0 mm
11:29 25.1 °C 10.9 °C 1013.8 hPa Calm     41 % 0 mm
11:30 25.1 °C 10.9 °C 1013.8 hPa Calm     41 % 0 mm
11:31 25.2 °C 10.6 °C 1013.8 hPa Calm     40 % 0 mm
11:32 25.3 °C 10.7 °C 1013.8 hPa NNW 1.1 km/h 3.7 km/h 40 % 0 mm
11:33 25.3 °C 10.7 °C 1013.8 hPa NNW 0.2 km/h 3.7 km/h 40 % 0 mm
11:34 25.3 °C 10.8 °C 1013.8 hPa North 1.3 km/h 3.7 km/h 40 % 0 mm
11:35 25.4 °C 10.8 °C 1013.8 hPa North 1.8 km/h 3.7 km/h 40 % 0 mm
11:36 25.4 °C 10.8 °C 1013.8 hPa NNW 2.9 km/h 4.8 km/h 40 % 0 mm
11:37 25.4 °C 10.8 °C 1014.1 hPa NNW 4.2 km/h 4.8 km/h 40 % 0 mm
11:39 25.5 °C 10.9 °C 1014.1 hPa NNW 3.1 km/h 5.6 km/h 40 % 0 mm
11:40 25.6 °C 10.9 °C 1014.1 hPa North 3.1 km/h 3.7 km/h 40 % 0 mm
11:42 25.6 °C 11 °C 1013.8 hPa NNW 3.5 km/h 6.4 km/h 40 % 0 mm
11:43 25.6 °C 11 °C 1013.8 hPa NNW 4.5 km/h 5.6 km/h 40 % 0 mm
11:44 25.7 °C 11.1 °C 1013.8 hPa NNW 2.9 km/h 5.6 km/h 40 % 0 mm
11:45 25.7 °C 11.1 °C 1013.8 hPa NNW 2.9 km/h 5.6 km/h 40 % 0 mm
11:46 25.7 °C 11.1 °C 1013.8 hPa NNW 3.5 km/h 5.6 km/h 40 % 0 mm
11:48 25.8 °C 11.2 °C 1013.8 hPa NNW 3.7 km/h 5.6 km/h 40 % 0 mm
11:49 25.9 °C 11.3 °C 1013.8 hPa NNW 5.3 km/h 5.6 km/h 40 % 0 mm
11:50 25.9 °C 11.3 °C 1013.8 hPa NNW 3.1 km/h 5.6 km/h 40 % 0 mm
11:51 26.1 °C 11.4 °C 1013.8 hPa NNW 5 km/h 7.4 km/h 40 % 0 mm
11:53 26.3 °C 11.3 °C 1014.1 hPa NNW 10.9 km/h 14.8 km/h 39 % 0 mm
11:54 26.4 °C 11.3 °C 1014.1 hPa North 9.3 km/h 14.8 km/h 39 % 0 mm
11:55 26.5 °C 11.4 °C 1014.1 hPa NW 12.4 km/h 16.7 km/h 39 % 0 mm
11:56 26.5 °C 11.4 °C 1014.1 hPa NW 10.8 km/h 14.8 km/h 39 % 0 mm
11:57 26.6 °C 11.1 °C 1013.8 hPa NW 9.5 km/h 14.8 km/h 38 % 0 mm
11:58 26.6 °C 11.1 °C 1013.8 hPa NW 7.2 km/h 9.3 km/h 38 % 0 mm
11:59 26.6 °C 11.1 °C 1013.8 hPa NW 7.1 km/h 9.3 km/h 38 % 0 mm
12:01 26.7 °C 11.2 °C 1013.8 hPa NW 6 km/h 9.3 km/h 38 % 0 mm
12:02 26.7 °C 11.2 °C 1013.8 hPa NW 4.5 km/h 9.3 km/h 38 % 0 mm
12:05 26.9 °C 11 °C 1013.8 hPa North 3.2 km/h 7.4 km/h 37 % 0 mm
12:06 27.1 °C 11.1 °C 1013.8 hPa NW 6.6 km/h 11.1 km/h 37 % 0 mm
12:07 27.1 °C 10.8 °C 1013.4 hPa NW 7.7 km/h 11.1 km/h 36 % 0 mm
12:08 27.2 °C 11.3 °C 1013.4 hPa NNW 6.9 km/h 14.5 km/h 37 % 0 mm
12:09 27.2 °C 11.3 °C 1013.4 hPa NNE 11.4 km/h 18.5 km/h 37 % 0 mm
12:10 27.3 °C 10.5 °C 1013.4 hPa North 12.1 km/h 18.5 km/h 35 % 0 mm
12:11 27.3 °C 10.5 °C 1013.4 hPa North 5.1 km/h 9.3 km/h 35 % 0 mm
12:12 27.3 °C 10.5 °C 1013.4 hPa North 10.8 km/h 12.9 km/h 35 % 0 mm
12:15 27.3 °C 10.1 °C 1013.1 hPa North 13.2 km/h 20.4 km/h 34 % 0 mm
12:16 27.3 °C 10.1 °C 1013.1 hPa North 12.1 km/h 18.5 km/h 34 % 0 mm
12:17 27.3 °C 10.5 °C 1013.1 hPa North 9.8 km/h 18.5 km/h 35 % 0 mm
12:18 27.3 °C 10.5 °C 1013.4 hPa North 6.9 km/h 11.1 km/h 35 % 0 mm
12:19 27.4 °C 10.6 °C 1013.4 hPa North 8.2 km/h 11.1 km/h 35 % 0 mm
12:20 27.4 °C 10.6 °C 1013.1 hPa North 7.2 km/h 9.3 km/h 35 % 0 mm
12:21 27.4 °C 10.6 °C 1013.1 hPa North 6.6 km/h 9.3 km/h 35 % 0 mm
12:22 27.5 °C 10.7 °C 1013.1 hPa NNW 8.4 km/h 13 km/h 35 % 0 mm
12:25 27.7 °C 10.4 °C 1013.1 hPa NNW 9 km/h 14.8 km/h 34 % 0 mm
12:27 27.7 °C 10.4 °C 1013.1 hPa NNW 10.1 km/h 14.8 km/h 34 % 0 mm
12:28 27.8 °C 10.5 °C 1013.1 hPa NNW 11.3 km/h 18.5 km/h 34 % 0 mm
12:30 27.8 °C 10.5 °C 1013.1 hPa North 10.3 km/h 16.7 km/h 34 % 0 mm
12:32 27.9 °C 10.1 °C 1013.1 hPa North 12.7 km/h 18.5 km/h 33 % 0 mm
12:33 27.9 °C 10.2 °C 1013.1 hPa North 12.4 km/h 18.5 km/h 33 % 0 mm
12:34 27.9 °C 10.6 °C 1013.1 hPa North 7.2 km/h 11.1 km/h 34 % 0 mm
12:35 28 °C 10.7 °C 1013.1 hPa NNW 10.6 km/h 18.5 km/h 34 % 0 mm
12:36 28 °C 10.7 °C 1012.8 hPa North 11.9 km/h 18.5 km/h 34 % 0 mm
12:37 28.1 °C 10.8 °C 1012.8 hPa North 10 km/h 18.5 km/h 34 % 0 mm
12:38 28.2 °C 10.9 °C 1012.8 hPa North 5.8 km/h 14.8 km/h 34 % 0 mm
12:39 28.2 °C 10.9 °C 1012.8 hPa North 8.7 km/h 14.8 km/h 34 % 0 mm
12:41 28.4 °C 10.6 °C 1012.8 hPa NNE 15.3 km/h 16.7 km/h 33 % 0 mm
12:44 28.6 °C 10.7 °C 1012.8 hPa North 10.3 km/h 16.7 km/h 33 % 0 mm
12:45 28.6 °C 10.8 °C 1013.1 hPa North 11.1 km/h 14.8 km/h 33 % 0 mm
12:46 28.6 °C 10.3 °C 1012.8 hPa North 9.8 km/h 16.1 km/h 32 % 0 mm
12:47 28.6 °C 10.8 °C 1012.8 hPa NNW 11.7 km/h 16.7 km/h 33 % 0 mm
12:49 28.6 °C 10.8 °C 1013.1 hPa North 9.8 km/h 16.7 km/h 33 % 0 mm
12:50 28.7 °C 10.8 °C 1012.8 hPa NNE 13 km/h 16.7 km/h 33 % 0 mm
12:51 28.7 °C 10.4 °C 1012.8 hPa North 11.7 km/h 18.5 km/h 32 % 0 mm
12:52 28.7 °C 10.4 °C 1012.8 hPa NNW 12.6 km/h 18.5 km/h 32 % 0 mm
12:53 28.8 °C 10.4 °C 1012.8 hPa NNW 13.5 km/h 20.9 km/h 32 % 0 mm
12:54 28.8 °C 10.5 °C 1012.8 hPa North 12.6 km/h 20.4 km/h 32 % 0 mm
12:55 28.9 °C 10.6 °C 1012.8 hPa North 10.6 km/h 20.4 km/h 32 % 0 mm
12:56 28.9 °C 10.6 °C 1012.8 hPa North 8.4 km/h 14.8 km/h 32 % 0 mm
12:57 28.9 °C 10.6 °C 1012.8 hPa NW 12.2 km/h 17.7 km/h 32 % 0 mm
12:58 28.9 °C 10.6 °C 1012.8 hPa North 11.7 km/h 18.5 km/h 32 % 0 mm
12:59 28.9 °C 10.6 °C 1012.8 hPa North 12.1 km/h 22.2 km/h 32 % 0 mm
13:03 28.8 °C 10.5 °C 1012.8 hPa North 19.5 km/h 24.1 km/h 32 % 0 mm
13:04 28.8 °C 10.4 °C 1012.8 hPa North 6.4 km/h 18.5 km/h 32 % 0 mm
13:05 28.8 °C 10.4 °C 1012.8 hPa North 7.1 km/h 11.1 km/h 32 % 0 mm
13:06 28.8 °C 10.5 °C 1012.8 hPa North 13.2 km/h 20.9 km/h 32 % 0 mm
13:07 28.8 °C 10.4 °C 1012.8 hPa NNW 13.7 km/h 20.4 km/h 32 % 0 mm
13:08 28.8 °C 10.4 °C 1012.8 hPa North 14 km/h 20.9 km/h 32 % 0 mm
13:09 28.8 °C 10.4 °C 1012.8 hPa NW 18.8 km/h 24.1 km/h 32 % 0 mm
13:10 28.6 °C 10.3 °C 1012.4 hPa NNW 10 km/h 22.2 km/h 32 % 0 mm
13:11 28.6 °C 10.3 °C 1012.4 hPa North 9.3 km/h 22.2 km/h 32 % 0 mm
13:12 28.6 °C 10.3 °C 1012.4 hPa North 10.1 km/h 14.8 km/h 32 % 0 mm
13:13 28.7 °C 10.8 °C 1012.4 hPa NNW 14 km/h 20.4 km/h 33 % 0 mm
13:14 28.7 °C 10.3 °C 1012.4 hPa North 9 km/h 16.7 km/h 32 % 0 mm
13:16 28.7 °C 10.8 °C 1012.4 hPa North 11.3 km/h 16.7 km/h 33 % 0 mm
13:17 28.8 °C 10.4 °C 1012.4 hPa North 8.9 km/h 14.8 km/h 32 % 0 mm
13:19 28.9 °C 10.6 °C 1012.4 hPa North 10.3 km/h 17.7 km/h 32 % 0 mm
13:20 28.9 °C 10.1 °C 1012.4 hPa North 16.3 km/h 22.2 km/h 31 % 0 mm
13:21 28.9 °C 10.6 °C 1012.4 hPa NNE 15.4 km/h 22.2 km/h 32 % 0 mm
13:22 28.9 °C 10.6 °C 1012.4 hPa NNW 9.5 km/h 16.7 km/h 32 % 0 mm
13:23 28.9 °C 10.6 °C 1012.4 hPa NNW 11.4 km/h 24.1 km/h 32 % 0 mm
13:24 28.9 °C 10.6 °C 1012.4 hPa North 13.8 km/h 24.1 km/h 32 % 0 mm
13:26 28.9 °C 10.6 °C 1012.4 hPa NNE 10.5 km/h 19.3 km/h 32 % 0 mm
13:27 28.9 °C 10.6 °C 1012.4 hPa NNW 16.9 km/h 22.2 km/h 32 % 0 mm
13:29 28.9 °C 10.6 °C 1012.4 hPa North 14.8 km/h 20.9 km/h 32 % 0 mm
13:31 28.8 °C 10.5 °C 1012.4 hPa North 17.5 km/h 22.2 km/h 32 % 0 mm
13:32 28.8 °C 10.5 °C 1012.4 hPa NNE 16.9 km/h 18.5 km/h 32 % 0 mm
13:35 28.9 °C 10.6 °C 1012.4 hPa North 13.4 km/h 25.9 km/h 32 % 0 mm
13:36 28.9 °C 10.6 °C 1012.4 hPa North 14.5 km/h 25.9 km/h 32 % 0 mm
13:37 28.9 °C 10.6 °C 1012.4 hPa NNE 16.3 km/h 25.9 km/h 32 % 0 mm
13:39 28.9 °C 10.6 °C 1012.4 hPa NNE 14 km/h 25.7 km/h 32 % 0 mm
13:41 28.8 °C 10.4 °C 1012.4 hPa North 11.3 km/h 22.2 km/h 32 % 0 mm
13:42 28.8 °C 10.4 °C 1012.4 hPa NNW 13.5 km/h 22.2 km/h 32 % 0 mm
13:43 28.8 °C 10.4 °C 1012.1 hPa NNE 14 km/h 20.4 km/h 32 % 0 mm
13:44 28.8 °C 10.4 °C 1012.1 hPa NNW 9.8 km/h 24.1 km/h 32 % 0 mm
13:47 28.8 °C 9.9 °C 1012.4 hPa North 10.1 km/h 18.5 km/h 31 % 0 mm
13:48 28.8 °C 9.9 °C 1012.4 hPa North 10.8 km/h 16.7 km/h 31 % 0 mm
13:49 28.8 °C 10 °C 1012.1 hPa North 10.1 km/h 16.7 km/h 31 % 0 mm
13:50 28.9 °C 10.1 °C 1012.1 hPa North 11.1 km/h 16.7 km/h 31 % 0 mm
13:51 28.9 °C 10.1 °C 1012.1 hPa North 12.6 km/h 20.4 km/h 31 % 0 mm
13:52 28.9 °C 10.1 °C 1012.1 hPa North 11.6 km/h 18.5 km/h 31 % 0 mm
13:53 29 °C 10.2 °C 1012.4 hPa NNW 15 km/h 20.4 km/h 31 % 0 mm
13:54 29 °C 10.2 °C 1012.4 hPa NNW 12.4 km/h 20.4 km/h 31 % 0 mm
13:55 29 °C 10.2 °C 1012.4 hPa North 11.6 km/h 18.5 km/h 31 % 0 mm
13:57 29 °C 10.2 °C 1012.4 hPa North 13.7 km/h 16.1 km/h 31 % 0 mm
13:58 29 °C 9.7 °C 1012.4 hPa North 13.2 km/h 22.2 km/h 30 % 0 mm
13:59 28.9 °C 10.1 °C 1012.4 hPa NNE 8.4 km/h 16.1 km/h 31 % 0 mm
14:00 28.9 °C 10.1 °C 1012.4 hPa North 10.6 km/h 13 km/h 31 % 0 mm
14:01 28.9 °C 10.1 °C 1012.4 hPa North 10.3 km/h 18.5 km/h 31 % 0 mm
14:02 28.9 °C 10.1 °C 1012.1 hPa North 7.7 km/h 18.5 km/h 31 % 0 mm
14:05 28.8 °C 10 °C 1011.7 hPa North 13.8 km/h 24.1 km/h 31 % 0 mm
14:07 28.9 °C 9.6 °C 1012.1 hPa North 11.3 km/h 18.5 km/h 30 % 0 mm
14:08 28.9 °C 10.1 °C 1011.7 hPa North 13.4 km/h 18.5 km/h 31 % 0 mm
14:09 28.9 °C 10.1 °C 1012.1 hPa NNE 15 km/h 19.3 km/h 31 % 0 mm
14:10 28.9 °C 9.6 °C 1012.1 hPa North 16.3 km/h 22.2 km/h 30 % 0 mm
14:11 28.9 °C 9.6 °C 1012.1 hPa North 15.1 km/h 22.2 km/h 30 % 0 mm
14:12 28.9 °C 9.6 °C 1012.1 hPa NNE 13.7 km/h 25.9 km/h 30 % 0 mm
14:13 29 °C 9.7 °C 1012.1 hPa NNW 13.7 km/h 27.8 km/h 30 % 0 mm
14:14 29 °C 9.7 °C 1012.1 hPa North 10.8 km/h 20.4 km/h 30 % 0 mm
14:15 29.1 °C 9.7 °C 1012.1 hPa NNE 14.5 km/h 20.4 km/h 30 % 0 mm
14:16 29.1 °C 9.8 °C 1012.1 hPa NNE 15.6 km/h 20.4 km/h 30 % 0 mm
14:17 29.1 °C 9.8 °C 1012.1 hPa North 18.8 km/h 20.4 km/h 30 % 0 mm
14:18 29.2 °C 9.3 °C 1012.1 hPa NNW 14 km/h 18.5 km/h 29 % 0 mm
14:20 29.2 °C 9.3 °C 1012.1 hPa North 19 km/h 29.6 km/h 29 % 0 mm
14:21 29.2 °C 9.3 °C 1012.1 hPa North 13.4 km/h 25.9 km/h 29 % 0 mm
14:24 29.2 °C 9.3 °C 1012.1 hPa North 17.4 km/h 25.9 km/h 29 % 0 mm
14:25 29.2 °C 9.3 °C 1012.1 hPa North 14.3 km/h 25.9 km/h 29 % 0 mm
14:26 29.2 °C 9.3 °C 1012.1 hPa North 19.8 km/h 27.8 km/h 29 % 0 mm
14:27 29.2 °C 9.3 °C 1012.1 hPa North 19.6 km/h 25.9 km/h 29 % 0 mm
14:28 29.2 °C 9.3 °C 1012.1 hPa North 16.1 km/h 25.9 km/h 29 % 0 mm
14:29 29.1 °C 9.3 °C 1012.1 hPa NNE 20.6 km/h 25.9 km/h 29 % 0 mm
14:31 29.1 °C 9.8 °C 1012.1 hPa North 9.8 km/h 18.5 km/h 30 % 0 mm
14:32 29.1 °C 9.8 °C 1012.1 hPa North 14.3 km/h 19.3 km/h 30 % 0 mm
14:34 29.1 °C 9.7 °C 1012.1 hPa North 17.9 km/h 31.5 km/h 30 % 0 mm
14:35 29.1 °C 9.7 °C 1012.4 hPa North 14.5 km/h 31.5 km/h 30 % 0 mm
14:36 29 °C 9.7 °C 1012.4 hPa NE 13 km/h 22.2 km/h 30 % 0 mm
14:37 29 °C 9.2 °C 1012.4 hPa North 19.6 km/h 35.2 km/h 29 % 0 mm
14:39 28.9 °C 9.1 °C 1012.4 hPa North 9.3 km/h 16.7 km/h 29 % 0 mm
14:40 28.9 °C 9.6 °C 1012.8 hPa North 11.3 km/h 18.5 km/h 30 % 0 mm
14:41 28.9 °C 9.1 °C 1012.4 hPa North 11.3 km/h 14.8 km/h 29 % 0 mm
14:43 28.8 °C 9.5 °C 1012.4 hPa North 14 km/h 20.4 km/h 30 % 0 mm
14:45 28.7 °C 9.4 °C 1012.4 hPa NNE 12.1 km/h 18.5 km/h 30 % 0 mm
14:46 28.7 °C 9.4 °C 1012.4 hPa North 15.6 km/h 24.1 km/h 30 % 0 mm
14:47 28.7 °C 9.4 °C 1012.4 hPa North 13.4 km/h 24.1 km/h 30 % 0 mm
14:48 28.6 °C 9.3 °C 1012.4 hPa NNW 16.4 km/h 24.1 km/h 30 % 0 mm
14:49 28.6 °C 9.3 °C 1012.4 hPa North 11.9 km/h 24.1 km/h 30 % 0 mm
14:50 28.5 °C 9.2 °C 1012.4 hPa North 15.9 km/h 22.2 km/h 30 % 0 mm
14:51 28.5 °C 9.2 °C 1012.4 hPa North 15.4 km/h 22.2 km/h 30 % 0 mm
14:52 28.4 °C 9.2 °C 1012.4 hPa NNW 11.6 km/h 22.2 km/h 30 % 0 mm
14:53 28.4 °C 9.2 °C 1012.4 hPa North 13.7 km/h 22.2 km/h 30 % 0 mm
14:54 28.4 °C 9.6 °C 1012.4 hPa NNE 11.7 km/h 20.4 km/h 31 % 0 mm
14:55 28.4 °C 9.6 °C 1012.4 hPa North 14.3 km/h 20.4 km/h 31 % 0 mm
14:56 28.4 °C 9.6 °C 1012.4 hPa North 10.6 km/h 18.5 km/h 31 % 0 mm
14:58 28.3 °C 9.6 °C 1012.4 hPa North 16.9 km/h 24.1 km/h 31 % 0 mm
14:59 28.3 °C 9.6 °C 1012.4 hPa North 12.2 km/h 24.1 km/h 31 % 0 mm
15:01 28.3 °C 9.6 °C 1012.4 hPa NNW 15 km/h 22.2 km/h 31 % 0 mm
15:02 28.4 °C 9.6 °C 1012.4 hPa North 12.1 km/h 20.4 km/h 31 % 0 mm
15:03 28.4 °C 9.6 °C 1012.4 hPa NNW 12.1 km/h 18.5 km/h 31 % 0 mm
15:05 28.4 °C 9.6 °C 1012.4 hPa North 9.3 km/h 16.7 km/h 31 % 0 mm
15:06 28.4 °C 9.6 °C 1012.4 hPa North 11.6 km/h 19.3 km/h 31 % 0 mm
15:08 28.4 °C 9.7 °C 1012.4 hPa North 10.3 km/h 18.5 km/h 31 % 0 mm
15:09 28.4 °C 9.7 °C 1012.4 hPa NNE 11.3 km/h 16.7 km/h 31 % 0 mm
15:10 28.4 °C 9.7 °C 1012.4 hPa NNE 10.9 km/h 16.7 km/h 31 % 0 mm
15:12 28.5 °C 9.7 °C 1012.4 hPa North 10.3 km/h 18.5 km/h 31 % 0 mm
15:14 28.6 °C 9.8 °C 1012.4 hPa North 14 km/h 18.5 km/h 31 % 0 mm
15:15 28.6 °C 9.8 °C 1012.4 hPa North 14 km/h 18.5 km/h 31 % 0 mm
15:16 28.6 °C 9.8 °C 1012.4 hPa North 16.7 km/h 20.4 km/h 31 % 0 mm
15:17 28.7 °C 9.9 °C 1012.4 hPa North 17.1 km/h 25.9 km/h 31 % 0 mm
15:18 28.7 °C 9.9 °C 1012.4 hPa North 14.3 km/h 25.9 km/h 31 % 0 mm
15:19 28.7 °C 9.9 °C 1012.4 hPa North 11.1 km/h 18.5 km/h 31 % 0 mm
15:21 28.8 °C 10 °C 1012.4 hPa North 12.9 km/h 18.5 km/h 31 % 0 mm
15:22 28.9 °C 10.1 °C 1012.4 hPa North 11.9 km/h 16.7 km/h 31 % 0 mm
15:23 28.9 °C 10.1 °C 1012.4 hPa North 11.9 km/h 16.7 km/h 31 % 0 mm
15:25 29.1 °C 9.7 °C 1012.4 hPa North 13.5 km/h 20.4 km/h 30 % 0 mm
15:26 29.1 °C 9.8 °C 1012.4 hPa NNW 8.9 km/h 18.5 km/h 30 % 0 mm
15:27 29.1 °C 9.8 °C 1012.4 hPa NNW 6.8 km/h 13 km/h 30 % 0 mm
15:28 29.1 °C 9.8 °C 1012.4 hPa NNW 7.4 km/h 7.4 km/h 30 % 0 mm
15:29 29.1 °C 9.8 °C 1012.4 hPa NE 9.2 km/h 9.7 km/h 30 % 0 mm
15:31 29.2 °C 9.8 °C 1012.4 hPa NNE 12.2 km/h 20.4 km/h 30 % 0 mm
15:32 29.2 °C 9.8 °C 1012.4 hPa NNE 12.1 km/h 18.5 km/h 30 % 0 mm
15:34 29.1 °C 9.8 °C 1012.4 hPa North 16.4 km/h 20.4 km/h 30 % 0 mm
15:35 29.1 °C 9.8 °C 1012.4 hPa North 16.3 km/h 20.4 km/h 30 % 0 mm
15:36 29.1 °C 9.7 °C 1012.4 hPa NNE 10 km/h 20.4 km/h 30 % 0 mm
15:37 29.1 °C 9.7 °C 1012.4 hPa NNE 8.5 km/h 20.4 km/h 30 % 0 mm
15:38 29.1 °C 9.7 °C 1012.4 hPa North 15 km/h 16.1 km/h 30 % 0 mm
15:39 29 °C 9.7 °C 1012.4 hPa NNE 8.9 km/h 18.5 km/h 30 % 0 mm
15:40 29 °C 9.7 °C 1012.4 hPa North 10 km/h 14.8 km/h 30 % 0 mm
15:42 29 °C 9.7 °C 1012.4 hPa North 7.7 km/h 13 km/h 30 % 0 mm
15:43 29 °C 9.7 °C 1012.4 hPa North 13.2 km/h 18.5 km/h 30 % 0 mm
15:44 29 °C 9.7 °C 1012.4 hPa North 8.4 km/h 18.5 km/h 30 % 0 mm
15:45 29 °C 9.7 °C 1012.4 hPa North 8.9 km/h 18.5 km/h 30 % 0 mm
15:46 29 °C 9.7 °C 1012.4 hPa North 12.2 km/h 16.7 km/h 30 % 0 mm
15:48 29 °C 9.7 °C 1012.4 hPa North 8.2 km/h 14.8 km/h 30 % 0 mm
15:51 29.1 °C 9.7 °C 1012.4 hPa North 9.7 km/h 16.7 km/h 30 % 0 mm
15:52 29.1 °C 9.7 °C 1012.4 hPa North 8.4 km/h 16.7 km/h 30 % 0 mm
15:53 29.1 °C 9.7 °C 1012.4 hPa North 11.3 km/h 16.7 km/h 30 % 0 mm
15:54 29.1 °C 9.7 °C 1012.4 hPa North 13.2 km/h 18.5 km/h 30 % 0 mm
15:55 29 °C 9.7 °C 1012.4 hPa North 9.8 km/h 18.5 km/h 30 % 0 mm
15:56 29 °C 9.7 °C 1012.4 hPa North 6.9 km/h 18.5 km/h 30 % 0 mm
15:57 29 °C 9.7 °C 1012.4 hPa North 9.5 km/h 16.7 km/h 30 % 0 mm
15:58 29 °C 9.7 °C 1012.4 hPa North 7.7 km/h 11.1 km/h 30 % 0 mm
15:59 29 °C 9.7 °C 1012.4 hPa North 6 km/h 11.1 km/h 30 % 0 mm
16:01 28.9 °C 9.6 °C 1012.4 hPa North 10.6 km/h 18.5 km/h 30 % 0 mm
16:02 28.9 °C 9.6 °C 1012.4 hPa North 7.1 km/h 13 km/h 30 % 0 mm
16:04 28.9 °C 10.1 °C 1012.4 hPa North 5.8 km/h 7.4 km/h 31 % 0 mm
16:06 28.9 °C 9.6 °C 1012.4 hPa North 10.6 km/h 16.1 km/h 30 % 0 mm
16:08 28.8 °C 10 °C 1012.4 hPa NNE 10.8 km/h 16.7 km/h 31 % 0 mm
16:10 28.8 °C 10 °C 1012.4 hPa NNE 7.6 km/h 11.1 km/h 31 % 0 mm
16:13 28.8 °C 9.9 °C 1012.4 hPa NNE 8.2 km/h 14.5 km/h 31 % 0 mm
16:14 28.8 °C 9.9 °C 1012.4 hPa North 10.5 km/h 14.8 km/h 31 % 0 mm
16:15 28.8 °C 9.9 °C 1012.4 hPa North 7.1 km/h 11.1 km/h 31 % 0 mm
16:16 28.8 °C 9.9 °C 1012.4 hPa North 7.1 km/h 11.1 km/h 31 % 0 mm
16:17 28.7 °C 9.9 °C 1012.4 hPa North 6.8 km/h 11.1 km/h 31 % 0 mm
16:18 28.7 °C 9.9 °C 1012.4 hPa North 6.6 km/h 11.1 km/h 31 % 0 mm
16:19 28.7 °C 9.9 °C 1012.4 hPa North 4.3 km/h 11.3 km/h 31 % 0 mm
16:20 28.7 °C 9.9 °C 1012.4 hPa North 7.4 km/h 13 km/h 31 % 0 mm
16:22 28.7 °C 9.9 °C 1012.4 hPa North 7.4 km/h 14.5 km/h 31 % 0 mm
16:23 28.7 °C 9.9 °C 1012.4 hPa North 10.1 km/h 14.8 km/h 31 % 0 mm
16:24 28.7 °C 9.9 °C 1012.4 hPa North 9.2 km/h 13 km/h 31 % 0 mm
16:25 28.7 °C 9.9 °C 1012.4 hPa North 8.5 km/h 13 km/h 31 % 0 mm
16:26 28.6 °C 9.8 °C 1012.4 hPa North 8 km/h 13 km/h 31 % 0 mm
16:27 28.6 °C 9.8 °C 1012.4 hPa North 8.5 km/h 13 km/h 31 % 0 mm
16:28 28.6 °C 9.8 °C 1012.4 hPa NNE 6.6 km/h 11.1 km/h 31 % 0 mm
16:29 28.6 °C 9.8 °C 1012.4 hPa NNE 6.4 km/h 8 km/h 31 % 0 mm
16:30 28.6 °C 9.8 °C 1012.4 hPa North 8.2 km/h 11.1 km/h 31 % 0 mm
16:31 28.6 °C 9.8 °C 1012.4 hPa NNE 6 km/h 9.3 km/h 31 % 0 mm
16:32 28.6 °C 9.8 °C 1012.4 hPa NNE 5.5 km/h 11.3 km/h 31 % 0 mm
16:33 28.5 °C 9.7 °C 1012.4 hPa North 9.3 km/h 14.8 km/h 31 % 0 mm
16:35 28.5 °C 9.7 °C 1012.4 hPa North 5.5 km/h 13 km/h 31 % 0 mm
16:36 28.5 °C 9.7 °C 1012.4 hPa North 4.7 km/h 11.3 km/h 31 % 0 mm
16:37 28.4 °C 9.7 °C 1012.4 hPa North 6.9 km/h 13 km/h 31 % 0 mm
16:40 28.4 °C 10.1 °C 1012.4 hPa North 4.8 km/h 9.7 km/h 32 % 0 mm
16:42 28.4 °C 10.1 °C 1012.4 hPa North 7.2 km/h 9.3 km/h 32 % 0 mm
16:43 28.4 °C 10.1 °C 1012.4 hPa North 5.6 km/h 11.1 km/h 32 % 0 mm
16:44 28.4 °C 10.1 °C 1012.4 hPa North 5.3 km/h 6.4 km/h 32 % 0 mm
16:45 28.3 °C 10.1 °C 1012.8 hPa North 5.1 km/h 7.4 km/h 32 % 0 mm
16:46 28.3 °C 10.1 °C 1012.8 hPa North 4.5 km/h 7.4 km/h 32 % 0 mm
16:48 28.3 °C 10 °C 1012.8 hPa North 5.1 km/h 9.3 km/h 32 % 0 mm
16:49 28.3 °C 10 °C 1012.8 hPa North 5.3 km/h 9.3 km/h 32 % 0 mm
16:50 28.3 °C 10 °C 1012.8 hPa North 5.8 km/h 7.4 km/h 32 % 0 mm
16:51 28.3 °C 10 °C 1012.8 hPa North 3.1 km/h 7.4 km/h 32 % 0 mm
16:52 28.2 °C 9.9 °C 1012.8 hPa North 4.2 km/h 7.4 km/h 32 % 0 mm
16:53 28.2 °C 9.9 °C 1012.8 hPa North 2.3 km/h 5.6 km/h 32 % 0 mm
16:54 28.2 °C 9.9 °C 1012.8 hPa North 2.4 km/h 5.6 km/h 32 % 0 mm
16:55 28.2 °C 9.9 °C 1012.8 hPa North 5 km/h 5.6 km/h 32 % 0 mm
16:56 28.2 °C 9.9 °C 1012.8 hPa North 4.2 km/h 7.4 km/h 32 % 0 mm
16:57 28.2 °C 9.9 °C 1012.8 hPa North 3.7 km/h 7.4 km/h 32 % 0 mm
16:59 28.2 °C 9.9 °C 1012.4 hPa North 6 km/h 7.4 km/h 32 % 0 mm
17:00 28.1 °C 9.8 °C 1012.8 hPa North 3.5 km/h 7.4 km/h 32 % 0 mm
17:02 28.1 °C 9.8 °C 1012.8 hPa North 2.3 km/h 3.2 km/h 32 % 0 mm
17:03 28.1 °C 9.8 °C 1012.8 hPa North 3.5 km/h 6.4 km/h 32 % 0 mm
17:04 28.1 °C 9.8 °C 1012.8 hPa North 4.2 km/h 5.6 km/h 32 % 0 mm
17:05 28 °C 9.8 °C 1012.8 hPa North 2.3 km/h 5.6 km/h 32 % 0 mm
17:06 28 °C 9.8 °C 1012.8 hPa North 3.5 km/h 5.6 km/h 32 % 0 mm
17:07 27.9 °C 9.7 °C 1012.4 hPa North 3.1 km/h 5.6 km/h 32 % 0 mm
17:08 27.9 °C 9.7 °C 1012.8 hPa North 2.7 km/h 5.6 km/h 32 % 0 mm
17:09 27.9 °C 9.7 °C 1012.8 hPa North 3.7 km/h 5.6 km/h 32 % 0 mm
17:10 27.9 °C 9.7 °C 1012.4 hPa North 2.3 km/h 5.6 km/h 32 % 0 mm
17:11 27.9 °C 9.7 °C 1012.8 hPa North 1.9 km/h 5.6 km/h 32 % 0 mm
17:12 27.9 °C 9.7 °C 1012.8 hPa North 1 km/h 1.9 km/h 32 % 0 mm
17:13 27.8 °C 10.1 °C 1012.8 hPa North 0.8 km/h 1.9 km/h 33 % 0 mm
17:14 27.8 °C 10.1 °C 1012.4 hPa North 1.6 km/h 3.2 km/h 33 % 0 mm
17:15 27.8 °C 10.1 °C 1012.4 hPa North 1.8 km/h 3.7 km/h 33 % 0 mm
17:16 27.8 °C 10.1 °C 1012.4 hPa North 1 km/h 5.6 km/h 33 % 0 mm
17:17 27.7 °C 10 °C 1012.4 hPa North 2.1 km/h 5.6 km/h 33 % 0 mm
17:18 27.7 °C 10 °C 1012.8 hPa North 2.6 km/h 5.6 km/h 33 % 0 mm
17:19 27.7 °C 9.9 °C 1012.4 hPa North 1.8 km/h 5.6 km/h 33 % 0 mm
17:20 27.7 °C 9.9 °C 1012.4 hPa North 0.6 km/h 1.9 km/h 33 % 0 mm
17:21 27.6 °C 9.9 °C 1012.4 hPa North 1.6 km/h 3.2 km/h 33 % 0 mm
17:22 27.6 °C 9.9 °C 1012.8 hPa North 2.6 km/h 3.7 km/h 33 % 0 mm
17:23 27.6 °C 9.8 °C 1012.8 hPa North 2.6 km/h 5.6 km/h 33 % 0 mm
17:24 27.6 °C 9.8 °C 1012.8 hPa North 3.1 km/h 5.6 km/h 33 % 0 mm
17:25 27.5 °C 10.2 °C 1012.8 hPa North 2.6 km/h 5.6 km/h 34 % 0 mm
17:26 27.4 °C 10.1 °C 1012.8 hPa North 2.4 km/h 3.7 km/h 34 % 0 mm
17:27 27.4 °C 10.1 °C 1012.8 hPa North 2.6 km/h 3.7 km/h 34 % 0 mm
17:28 27.3 °C 10.1 °C 1012.8 hPa North 3.2 km/h 3.7 km/h 34 % 0 mm
17:29 27.3 °C 10.1 °C 1012.8 hPa North 3.2 km/h 3.7 km/h 34 % 0 mm
17:30 27.2 °C 10 °C 1012.8 hPa North 3.4 km/h 5.6 km/h 34 % 0 mm
17:31 27.2 °C 9.9 °C 1012.8 hPa North 3.7 km/h 5.6 km/h 34 % 0 mm
17:32 27.1 °C 9.9 °C 1012.8 hPa North 3.4 km/h 5.6 km/h 34 % 0 mm
17:33 27.1 °C 10.3 °C 1013.1 hPa North 3.1 km/h 5.6 km/h 35 % 0 mm
17:34 27.1 °C 10.3 °C 1013.1 hPa North 3.7 km/h 5.6 km/h 35 % 0 mm
17:35 27 °C 10.2 °C 1013.1 hPa North 3.5 km/h 5.6 km/h 35 % 0 mm
17:36 27 °C 10.2 °C 1013.1 hPa North 2.4 km/h 3.7 km/h 35 % 0 mm
17:37 26.9 °C 10.2 °C 1013.1 hPa North 1.8 km/h 3.7 km/h 35 % 0 mm
17:38 26.9 °C 10.2 °C 1013.1 hPa North 1.6 km/h 3.7 km/h 35 % 0 mm
17:39 26.9 °C 10.1 °C 1013.1 hPa North 2.3 km/h 3.7 km/h 35 % 0 mm
17:40 26.8 °C 10.5 °C 1013.1 hPa North 0.8 km/h 3.7 km/h 36 % 0 mm
17:41 26.8 °C 10.1 °C 1013.1 hPa North 1.6 km/h 3.7 km/h 35 % 0 mm
17:42 26.8 °C 10.1 °C 1013.1 hPa North 1.4 km/h 3.7 km/h 35 % 0 mm
17:43 26.7 °C 10 °C 1012.8 hPa North 1.6 km/h 3.7 km/h 35 % 0 mm
17:44 26.7 °C 10.4 °C 1012.8 hPa North 0.5 km/h 1.9 km/h 36 % 0 mm
17:45 26.7 °C 10.3 °C 1013.1 hPa North 1.6 km/h 3.7 km/h 36 % 0 mm
17:46 26.7 °C 10.3 °C 1013.1 hPa North 1.9 km/h 3.7 km/h 36 % 0 mm
17:47 26.6 °C 9.9 °C 1013.1 hPa North 1.6 km/h 3.7 km/h 35 % 0 mm
17:48 26.6 °C 10.3 °C 1013.1 hPa North 2.1 km/h 3.7 km/h 36 % 0 mm
17:49 26.6 °C 9.9 °C 1013.1 hPa North 1.6 km/h 3.7 km/h 35 % 0 mm
17:50 26.6 °C 9.9 °C 1013.1 hPa North 1.4 km/h 3.7 km/h 35 % 0 mm
17:51 26.6 °C 10.3 °C 1013.1 hPa North 2.1 km/h 3.7 km/h 36 % 0 mm
17:52 26.6 °C 10.3 °C 1013.1 hPa North 2.3 km/h 5.6 km/h 36 % 0 mm
17:53 26.6 °C 10.3 °C 1013.1 hPa North 2.7 km/h 5.6 km/h 36 % 0 mm
17:54 26.6 °C 10.3 °C 1013.1 hPa North 1.9 km/h 5.6 km/h 36 % 0 mm
17:55 26.6 °C 10.3 °C 1013.1 hPa North 1.1 km/h 3.7 km/h 36 % 0 mm
17:56 26.6 °C 10.3 °C 1013.1 hPa North 0.2 km/h 1.9 km/h 36 % 0 mm
17:57 26.6 °C 10.3 °C 1013.1 hPa North 0.2 km/h 1.9 km/h 36 % 0 mm
17:58 26.6 °C 10.7 °C 1013.1 hPa North 2.7 km/h 5.6 km/h 37 % 0 mm
17:59 26.5 °C 10.2 °C 1013.1 hPa North 2.6 km/h 5.6 km/h 36 % 0 mm
18:00 26.4 °C 10.2 °C 1013.1 hPa North 3.4 km/h 3.7 km/h 36 % 0 mm
18:01 26.4 °C 10.1 °C 1013.1 hPa North 3.4 km/h 5.6 km/h 36 % 0 mm
18:02 26.3 °C 10.1 °C 1013.1 hPa North 3.4 km/h 5.6 km/h 36 % 0 mm
18:04 26.3 °C 10 °C 1013.1 hPa North 2.4 km/h 5.6 km/h 36 % 0 mm
18:05 26.3 °C 10 °C 1013.1 hPa North 2.6 km/h 5.6 km/h 36 % 0 mm
18:06 26.2 °C 9.9 °C 1013.1 hPa North 2.9 km/h 5.6 km/h 36 % 0 mm
18:07 26.2 °C 9.9 °C 1013.1 hPa North 2.4 km/h 3.7 km/h 36 % 0 mm
18:08 26.2 °C 9.9 °C 1013.1 hPa North 2.7 km/h 3.7 km/h 36 % 0 mm
18:09 26.2 °C 9.9 °C 1013.1 hPa North 4.3 km/h 5.6 km/h 36 % 0 mm
18:10 26.2 °C 9.9 °C 1013.1 hPa North 3.9 km/h 5.6 km/h 36 % 0 mm
18:11 26.2 °C 9.9 °C 1013.1 hPa North 2.1 km/h 5.6 km/h 36 % 0 mm
18:12 26.2 °C 9.9 °C 1013.1 hPa North 1.4 km/h 1.9 km/h 36 % 0 mm
18:13 26.2 °C 9.9 °C 1013.1 hPa North 2.7 km/h 5.6 km/h 36 % 0 mm
18:14 26.2 °C 9.9 °C 1013.1 hPa North 3.2 km/h 5.6 km/h 36 % 0 mm
18:15 26.2 °C 9.9 °C 1013.1 hPa North 2.3 km/h 5.6 km/h 36 % 0 mm
18:16 26.2 °C 9.9 °C 1013.1 hPa North 3.5 km/h 5.6 km/h 36 % 0 mm
18:17 26.2 °C 9.9 °C 1013.1 hPa North 2.4 km/h 5.6 km/h 36 % 0 mm
18:18 26.2 °C 9.9 °C 1013.1 hPa North 4 km/h 5.6 km/h 36 % 0 mm
18:20 26.2 °C 9.9 °C 1013.1 hPa North 2.7 km/h 5.6 km/h 36 % 0 mm
18:22 26.2 °C 9.9 °C 1013.1 hPa North 0.8 km/h 3.7 km/h 36 % 0 mm
18:23 26.2 °C 9.9 °C 1013.1 hPa North 1.4 km/h 3.7 km/h 36 % 0 mm
18:24 26.2 °C 9.9 °C 1013.1 hPa North 1.3 km/h 3.7 km/h 36 % 0 mm
18:25 26.1 °C 9.9 °C 1013.1 hPa North 1.6 km/h 1.9 km/h 36 % 0 mm
18:26 26.1 °C 9.8 °C 1013.1 hPa North 1.9 km/h 3.7 km/h 36 % 0 mm
18:27 26.1 °C 9.8 °C 1013.1 hPa North 2.1 km/h 3.7 km/h 36 % 0 mm
18:28 26 °C 10.2 °C 1013.1 hPa North 3.9 km/h 5.6 km/h 37 % 0 mm
18:29 25.9 °C 10.1 °C 1013.1 hPa North 3.7 km/h 5.6 km/h 37 % 0 mm
18:30 25.9 °C 10.1 °C 1013.1 hPa North 3.5 km/h 5.6 km/h 37 % 0 mm
18:31 25.9 °C 10.1 °C 1013.1 hPa North 2.7 km/h 5.6 km/h 37 % 0 mm
18:32 25.8 °C 10.1 °C 1013.1 hPa North 1.9 km/h 5.6 km/h 37 % 0 mm
18:33 25.8 °C 10.1 °C 1013.1 hPa North 3.5 km/h 5.6 km/h 37 % 0 mm
18:34 25.8 °C 10 °C 1013.1 hPa North 2.7 km/h 5.6 km/h 37 % 0 mm
18:35 25.7 °C 9.9 °C 1013.1 hPa North 1.9 km/h 5.6 km/h 37 % 0 mm
18:36 25.7 °C 9.9 °C 1013.1 hPa North 1.1 km/h 1.9 km/h 37 % 0 mm
18:37 25.7 °C 9.9 °C 1013.1 hPa North 2.4 km/h 3.7 km/h 37 % 0 mm
18:38 25.6 °C 9.8 °C 1013.1 hPa North 3.1 km/h 5.6 km/h 37 % 0 mm
18:39 25.6 °C 9.8 °C 1013.1 hPa North 2.9 km/h 4.8 km/h 37 % 0 mm
18:40 25.6 °C 9.8 °C 1013.1 hPa North 3.2 km/h 5.6 km/h 37 % 0 mm
18:41 25.7 °C 9.9 °C 1013.1 hPa North 3.4 km/h 5.6 km/h 37 % 0 mm
18:43 25.7 °C 9.9 °C 1013.1 hPa North 2.9 km/h 5.6 km/h 37 % 0 mm
18:44 25.7 °C 9.9 °C 1013.1 hPa North 3.5 km/h 5.6 km/h 37 % 0 mm
18:45 25.7 °C 9.9 °C 1013.1 hPa North 2.7 km/h 5.6 km/h 37 % 0 mm
18:46 25.7 °C 9.9 °C 1013.1 hPa North 0.8 km/h 3.7 km/h 37 % 0 mm
18:47 25.7 °C 9.9 °C 1013.1 hPa North 0.8 km/h 3.7 km/h 37 % 0 mm
18:48 25.7 °C 9.9 °C 1013.1 hPa North 1.3 km/h 3.7 km/h 37 % 0 mm
18:49 25.7 °C 9.9 °C 1013.1 hPa North 1.3 km/h 3.7 km/h 37 % 0 mm
18:50 25.7 °C 9.9 °C 1013.1 hPa North 1.3 km/h 3.7 km/h 37 % 0 mm
18:51 25.7 °C 9.9 °C 1013.1 hPa North 4 km/h 6.4 km/h 37 % 0 mm
18:52 25.7 °C 9.9 °C 1013.1 hPa North 4.2 km/h 5.6 km/h 37 % 0 mm
18:53 25.7 °C 9.9 °C 1013.1 hPa North 3.5 km/h 5.6 km/h 37 % 0 mm
18:54 25.7 °C 9.9 °C 1013.1 hPa North 4.3 km/h 5.6 km/h 37 % 0 mm
18:55 25.7 °C 9.9 °C 1013.1 hPa North 4.3 km/h 5.6 km/h 37 % 0 mm
18:56 25.7 °C 9.9 °C 1013.1 hPa North 4.5 km/h 5.6 km/h 37 % 0 mm
18:57 25.7 °C 9.9 °C 1013.1 hPa North 4.7 km/h 5.6 km/h 37 % 0 mm
18:58 25.6 °C 9.8 °C 1013.1 hPa North 4 km/h 5.6 km/h 37 % 0 mm
18:59 25.6 °C 10.2 °C 1013.1 hPa North 3.7 km/h 5.6 km/h 38 % 0 mm
19:00 25.6 °C 10.2 °C 1013.1 hPa North 4.3 km/h 5.6 km/h 38 % 0 mm
19:01 25.5 °C 10.1 °C 1013.1 hPa North 5 km/h 7.4 km/h 38 % 0 mm
19:02 25.4 °C 10.1 °C 1013.1 hPa North 5.3 km/h 6.4 km/h 38 % 0 mm
19:03 25.3 °C 10 °C 1013.1 hPa North 4.8 km/h 5.6 km/h 38 % 0 mm
19:04 25.2 °C 10.3 °C 1013.1 hPa North 4.5 km/h 5.6 km/h 39 % 0 mm
19:05 25.2 °C 10.3 °C 1013.4 hPa North 4.8 km/h 6.4 km/h 39 % 0 mm
19:06 25.1 °C 10.2 °C 1013.4 hPa North 2.9 km/h 5.6 km/h 39 % 0 mm
19:07 25.1 °C 10.2 °C 1013.4 hPa North 3.4 km/h 5.6 km/h 39 % 0 mm
19:08 25.1 °C 10.1 °C 1013.4 hPa North 3.5 km/h 5.6 km/h 39 % 0 mm
19:09 25 °C 10.1 °C 1013.4 hPa North 3.4 km/h 5.6 km/h 39 % 0 mm
19:11 24.9 °C 10.3 °C 1013.4 hPa North 2.4 km/h 3.7 km/h 40 % 0 mm
19:12 24.8 °C 10.3 °C 1013.4 hPa North 2.4 km/h 5.6 km/h 40 % 0 mm
19:13 24.8 °C 10.3 °C 1013.4 hPa North 0.3 km/h 1.9 km/h 40 % 0 mm
19:14 24.8 °C 10.3 °C 1013.4 hPa North 1.6 km/h 3.7 km/h 40 % 0 mm
19:15 24.8 °C 10.3 °C 1013.4 hPa North 1.8 km/h 3.7 km/h 40 % 0 mm
19:16 24.7 °C 10.2 °C 1013.4 hPa North 2.1 km/h 3.7 km/h 40 % 0 mm
19:17 24.7 °C 10.6 °C 1013.4 hPa North 2.9 km/h 5.6 km/h 41 % 0 mm
19:18 24.6 °C 10.5 °C 1013.4 hPa North 4.3 km/h 5.6 km/h 41 % 0 mm
19:19 24.6 °C 10.1 °C 1013.4 hPa North 5.3 km/h 7.4 km/h 40 % 0 mm
19:20 24.5 °C 10 °C 1013.4 hPa North 6.6 km/h 8 km/h 40 % 0 mm
19:21 24.4 °C 9.9 °C 1013.4 hPa North 6 km/h 7.4 km/h 40 % 0 mm
19:22 24.4 °C 9.9 °C 1013.4 hPa North 6.1 km/h 7.4 km/h 40 % 0 mm
19:23 24.4 °C 9.9 °C 1013.4 hPa North 5.3 km/h 7.4 km/h 40 % 0 mm
19:24 24.4 °C 9.9 °C 1013.4 hPa North 4.7 km/h 5.6 km/h 40 % 0 mm
19:25 24.4 °C 9.9 °C 1013.4 hPa North 3.7 km/h 6.4 km/h 40 % 0 mm
19:26 24.4 °C 9.9 °C 1013.4 hPa North 4.2 km/h 5.6 km/h 40 % 0 mm
19:27 24.4 °C 9.9 °C 1013.4 hPa North 3.2 km/h 5.6 km/h 40 % 0 mm
19:28 24.4 °C 9.9 °C 1013.8 hPa North 3.7 km/h 5.6 km/h 40 % 0 mm
19:29 24.4 °C 9.9 °C 1013.4 hPa North 1.9 km/h 5.6 km/h 40 % 0 mm
19:30 24.4 °C 9.9 °C 1013.4 hPa North 1.9 km/h 3.7 km/h 40 % 0 mm
19:31 24.4 °C 9.9 °C 1013.4 hPa North 2.7 km/h 3.7 km/h 40 % 0 mm
19:32 24.4 °C 9.9 °C 1013.4 hPa North 2.7 km/h 5.6 km/h 40 % 0 mm
19:33 24.4 °C 9.9 °C 1013.4 hPa North 1.8 km/h 5.6 km/h 40 % 0 mm
19:34 24.4 °C 9.9 °C 1013.4 hPa North 0.8 km/h 1.9 km/h 40 % 0 mm
19:35 24.4 °C 9.9 °C 1013.4 hPa North 0.5 km/h 1.9 km/h 40 % 0 mm
19:36 24.3 °C 9.9 °C 1013.4 hPa North 3.9 km/h 5.6 km/h 40 % 0 mm
19:37 24.3 °C 9.9 °C 1013.8 hPa North 4.3 km/h 5.6 km/h 40 % 0 mm
19:38 24.3 °C 9.8 °C 1013.4 hPa North 3.7 km/h 5.6 km/h 40 % 0 mm
19:39 24.3 °C 9.8 °C 1013.8 hPa North 3.5 km/h 5.6 km/h 40 % 0 mm
19:40 24.3 °C 9.8 °C 1013.8 hPa North 4.3 km/h 5.6 km/h 40 % 0 mm
19:41 24.3 °C 9.8 °C 1013.8 hPa North 3.7 km/h 5.6 km/h 40 % 0 mm
19:42 24.3 °C 9.8 °C 1013.8 hPa North 2.7 km/h 5.6 km/h 40 % 0 mm
19:43 24.3 °C 9.8 °C 1013.8 hPa North 2.6 km/h 3.7 km/h 40 % 0 mm
19:44 24.3 °C 9.8 °C 1013.8 hPa North 2.3 km/h 3.7 km/h 40 % 0 mm
19:45 24.3 °C 9.8 °C 1013.8 hPa North 1.1 km/h 3.7 km/h 40 % 0 mm
19:46 24.2 °C 9.8 °C 1013.4 hPa North 4 km/h 5.6 km/h 40 % 0 mm
19:47 24.2 °C 9.8 °C 1013.4 hPa North 3.5 km/h 5.6 km/h 40 % 0 mm
19:48 24.2 °C 9.8 °C 1013.4 hPa North 4.2 km/h 5.6 km/h 40 % 0 mm
19:49 24.2 °C 9.7 °C 1013.4 hPa North 5.3 km/h 5.6 km/h 40 % 0 mm
19:50 24.2 °C 9.7 °C 1013.4 hPa North 4.8 km/h 5.6 km/h 40 % 0 mm
19:51 24.2 °C 9.7 °C 1013.4 hPa North 4.2 km/h 5.6 km/h 40 % 0 mm
19:52 24.2 °C 9.7 °C 1013.4 hPa North 4.8 km/h 5.6 km/h 40 % 0 mm
19:53 24.2 °C 9.7 °C 1013.4 hPa North 4.8 km/h 5.6 km/h 40 % 0 mm
19:54 24.2 °C 9.7 °C 1013.4 hPa North 5 km/h 6.4 km/h 40 % 0 mm
19:55 24.2 °C 9.7 °C 1013.4 hPa North 5 km/h 5.6 km/h 40 % 0 mm
19:56 24.2 °C 9.7 °C 1013.4 hPa North 3.1 km/h 5.6 km/h 40 % 0 mm
19:57 24.2 °C 9.7 °C 1013.8 hPa North 1 km/h 5.6 km/h 40 % 0 mm
19:58 24.1 °C 10.1 °C 1013.8 hPa North 0.6 km/h 3.7 km/h 41 % 0 mm
19:59 24.1 °C 10 °C 1013.8 hPa North 1 km/h 1.9 km/h 41 % 0 mm
20:00 24 °C 9.9 °C 1013.8 hPa Calm     41 % 0 mm
20:01 23.9 °C 9.9 °C 1013.8 hPa Calm     41 % 0 mm
20:02 23.9 °C 9.9 °C 1013.8 hPa Calm     41 % 0 mm
20:04 23.9 °C 9.8 °C 1013.8 hPa Calm     41 % 0 mm
20:05 23.9 °C 9.8 °C 1013.8 hPa Calm     41 % 0 mm
20:06 23.8 °C 9.8 °C 1013.8 hPa Calm     41 % 0 mm
20:07 23.8 °C 9.8 °C 1014.1 hPa Calm     41 % 0 mm
20:08 23.8 °C 9.7 °C 1014.1 hPa Calm     41 % 0 mm
20:09 23.8 °C 9.7 °C 1014.1 hPa Calm     41 % 0 mm
20:10 23.7 °C 10.1 °C 1014.1 hPa Calm     42 % 0 mm
20:11 23.7 °C 10.1 °C 1014.1 hPa Calm     42 % 0 mm
20:12 23.7 °C 9.7 °C 1014.1 hPa Calm     41 % 0 mm
20:13 23.7 °C 9.6 °C 1014.1 hPa Calm     41 % 0 mm
20:14 23.7 °C 9.6 °C 1014.1 hPa Calm   1.9 km/h 41 % 0 mm
20:15 23.7 °C 9.6 °C 1014.1 hPa Calm     41 % 0 mm
20:16 23.6 °C 9.9 °C 1014.1 hPa Calm     42 % 0 mm
20:18 23.6 °C 9.9 °C 1014.1 hPa Calm     42 % 0 mm
20:19 23.5 °C 10.2 °C 1014.1 hPa Calm     43 % 0 mm
20:20 23.5 °C 10.2 °C 1014.1 hPa Calm     43 % 0 mm
20:21 23.4 °C 10.2 °C 1014.1 hPa Calm     43 % 0 mm
20:22 23.4 °C 10.2 °C 1014.1 hPa Calm     43 % 0 mm
20:23 23.4 °C 10.1 °C 1014.1 hPa Calm     43 % 0 mm
20:24 23.4 °C 10.1 °C 1014.1 hPa Calm     43 % 0 mm
20:25 23.3 °C 10.1 °C 1014.1 hPa Calm     43 % 0 mm
20:26 23.3 °C 10.3 °C 1014.1 hPa Calm     44 % 0 mm
20:27 23.2 °C 10.3 °C 1014.1 hPa Calm     44 % 0 mm
20:28 23.2 °C 10.2 °C 1014.1 hPa Calm     44 % 0 mm
20:30 23.1 °C 10.1 °C 1014.1 hPa Calm     44 % 0 mm
20:31 23 °C 10.1 °C 1014.1 hPa Calm     44 % 0 mm
20:32 22.9 °C 10.4 °C 1014.4 hPa Calm     45 % 0 mm
20:33 22.9 °C 10.3 °C 1014.4 hPa Calm     45 % 0 mm
20:34 22.8 °C 10.2 °C 1014.4 hPa Calm     45 % 0 mm
20:36 22.8 °C 10.2 °C 1014.4 hPa Calm     45 % 0 mm
20:37 22.7 °C 10.2 °C 1014.4 hPa Calm     45 % 0 mm
20:38 22.7 °C 10.4 °C 1014.4 hPa Calm     46 % 0 mm
20:40 22.6 °C 10.4 °C 1014.4 hPa North 2.1 km/h 3.7 km/h 46 % 0 mm
20:41 22.6 °C 10.4 °C 1014.4 hPa North 2.4 km/h 3.7 km/h 46 % 0 mm
20:43 22.6 °C 10.4 °C 1014.4 hPa North 2.9 km/h 4.8 km/h 46 % 0 mm
20:44 22.6 °C 10.4 °C 1014.1 hPa North 3.4 km/h 5.6 km/h 46 % 0 mm
20:45 22.6 °C 10.4 °C 1014.4 hPa North 3.7 km/h 5.6 km/h 46 % 0 mm
20:46 22.6 °C 10.3 °C 1014.4 hPa North 4 km/h 5.6 km/h 46 % 0 mm
20:47 22.6 °C 10.3 °C 1014.1 hPa North 4.2 km/h 5.6 km/h 46 % 0 mm
20:48 22.6 °C 10.1 °C 1014.1 hPa North 4.2 km/h 5.6 km/h 45 % 0 mm
20:50 22.6 °C 10.1 °C 1014.4 hPa North 1 km/h 3.7 km/h 45 % 0 mm
20:51 22.7 °C 9.8 °C 1014.4 hPa North 0.8 km/h 3.7 km/h 44 % 0 mm
20:52 22.7 °C 10.2 °C 1014.4 hPa Calm     45 % 0 mm
20:53 22.7 °C 10.2 °C 1014.4 hPa North 1.4 km/h 3.7 km/h 45 % 0 mm
20:54 22.7 °C 10.5 °C 1014.4 hPa North 2.1 km/h 3.7 km/h 46 % 0 mm
20:55 22.8 °C 9.9 °C 1014.4 hPa North 2.4 km/h 3.7 km/h 44 % 0 mm
20:56 22.8 °C 9.9 °C 1014.4 hPa North 2.9 km/h 5.6 km/h 44 % 0 mm
20:58 22.9 °C 10.1 °C 1014.4 hPa North 2.9 km/h 5.6 km/h 44 % 0 mm
20:59 22.9 °C 10.1 °C 1014.4 hPa North 1.8 km/h 5.6 km/h 44 % 0 mm
21:00 23 °C 10.4 °C 1014.4 hPa North 0.6 km/h 3.7 km/h 45 % 0 mm
21:01 23 °C 10.4 °C 1014.4 hPa North 2.6 km/h 3.7 km/h 45 % 0 mm
21:02 23 °C 10.4 °C 1014.4 hPa North 2.7 km/h 3.7 km/h 45 % 0 mm
21:03 22.9 °C 10.4 °C 1014.4 hPa North 2.7 km/h 3.7 km/h 45 % 0 mm
21:04 22.9 °C 10.1 °C 1014.4 hPa North 1.8 km/h 3.7 km/h 44 % 0 mm
21:05 22.9 °C 10.1 °C 1014.4 hPa North 1.9 km/h 3.7 km/h 44 % 0 mm
21:06 22.9 °C 10 °C 1014.4 hPa North 2.7 km/h 4.8 km/h 44 % 0 mm
21:08 22.9 °C 10 °C 1014.1 hPa North 5.3 km/h 5.6 km/h 44 % 0 mm
21:09 22.9 °C 10 °C 1014.1 hPa North 3.2 km/h 5.6 km/h 44 % 0 mm
21:10 22.9 °C 10 °C 1014.1 hPa North 2.4 km/h 3.7 km/h 44 % 0 mm
21:11 22.9 °C 10 °C 1014.1 hPa North 2.1 km/h 3.7 km/h 44 % 0 mm
21:12 22.9 °C 9.7 °C 1014.1 hPa North 0.8 km/h 3.7 km/h 43 % 0 mm
21:13 22.9 °C 9.7 °C 1014.4 hPa Calm   3.7 km/h 43 % 0 mm
21:14 22.9 °C 10 °C 1014.4 hPa Calm     44 % 0 mm
21:16 22.9 °C 10 °C 1014.4 hPa North 1.6 km/h 5.6 km/h 44 % 0 mm
21:17 22.9 °C 10 °C 1014.8 hPa North 4.2 km/h 4.8 km/h 44 % 0 mm
21:18 22.9 °C 10.1 °C 1014.8 hPa North 4.5 km/h 5.6 km/h 44 % 0 mm
21:19 22.9 °C 10.1 °C 1014.8 hPa North 3.2 km/h 5.6 km/h 44 % 0 mm
21:20 22.9 °C 10 °C 1014.8 hPa North 1.9 km/h 3.7 km/h 44 % 0 mm
21:21 22.9 °C 10 °C 1014.8 hPa North 0.2 km/h 1.9 km/h 44 % 0 mm
21:22 22.9 °C 10 °C 1014.8 hPa Calm     44 % 0 mm
21:23 22.9 °C 10 °C 1014.8 hPa Calm     44 % 0 mm
21:25 22.8 °C 9.9 °C 1014.8 hPa Calm     44 % 0 mm
21:26 22.8 °C 9.9 °C 1014.8 hPa Calm     44 % 0 mm
21:27 22.8 °C 9.9 °C 1014.8 hPa Calm   1.6 km/h 44 % 0 mm
21:28 22.8 °C 9.9 °C 1014.8 hPa North 1.8 km/h 3.7 km/h 44 % 0 mm
21:29 22.8 °C 9.9 °C 1014.8 hPa North 1.8 km/h 3.7 km/h 44 % 0 mm
21:30 22.8 °C 10.2 °C 1014.8 hPa North 0.3 km/h 3.7 km/h 45 % 0 mm
21:31 22.7 °C 10.5 °C 1014.8 hPa North 4.5 km/h 9.7 km/h 46 % 0 mm
21:32 22.7 °C 10.4 °C 1015.1 hPa North 9.8 km/h 9.8 km/h 46 % 0 mm
21:33 22.6 °C 10 °C 1014.8 hPa NNE 6.1 km/h 14.8 km/h 45 % 0 mm
21:35 22.5 °C 10.3 °C 1014.8 hPa NNE 5.3 km/h 6.4 km/h 46 % 0 mm
21:36 22.5 °C 10.3 °C 1014.8 hPa NNE 4.2 km/h 5.6 km/h 46 % 0 mm
21:37 22.4 °C 9.9 °C 1014.8 hPa NNE 4 km/h 5.6 km/h 45 % 0 mm
21:38 22.4 °C 9.9 °C 1014.8 hPa NNE 3.9 km/h 5.6 km/h 45 % 0 mm
21:39 22.4 °C 9.9 °C 1014.8 hPa NNE 5 km/h 8 km/h 45 % 0 mm
21:40 22.4 °C 9.6 °C 1014.8 hPa NE 7.6 km/h 11.1 km/h 44 % 0 mm
21:41 22.5 °C 9.3 °C 1014.8 hPa NE 7.9 km/h 11.1 km/h 43 % 0 mm
21:42 22.6 °C 9.3 °C 1014.8 hPa NE 8 km/h 11.1 km/h 43 % 0 mm
21:43 22.7 °C 9.4 °C 1014.8 hPa NE 6.9 km/h 8 km/h 43 % 0 mm
21:44 22.8 °C 9.6 °C 1014.8 hPa ENE 6.6 km/h 7.4 km/h 43 % 0 mm
21:45 22.8 °C 9.6 °C 1015.1 hPa ENE 4.2 km/h 6.4 km/h 43 % 0 mm
21:46 22.8 °C 9.6 °C 1014.8 hPa ENE 5.1 km/h 5.6 km/h 43 % 0 mm
21:47 22.9 °C 9.7 °C 1015.1 hPa ENE 6 km/h 8 km/h 43 % 0 mm
21:49 22.9 °C 10.3 °C 1015.1 hPa ENE 3.7 km/h 7.4 km/h 45 % 0 mm
21:50 22.9 °C 10.3 °C 1015.1 hPa ENE 4.2 km/h 7.4 km/h 45 % 0 mm
21:51 22.8 °C 10.9 °C 1015.1 hPa East 8 km/h 13 km/h 47 % 0 mm
21:52 22.8 °C 10.9 °C 1015.1 hPa East 5.3 km/h 9.3 km/h 47 % 0 mm
21:53 22.8 °C 10.9 °C 1015.1 hPa East 4.3 km/h 5.6 km/h 47 % 0 mm
21:54 22.8 °C 11.2 °C 1015.1 hPa East 3.9 km/h 5.6 km/h 48 % 0 mm
21:55 22.7 °C 11.2 °C 1015.1 hPa East 1.9 km/h 3.7 km/h 48 % 0 mm
21:56 22.7 °C 11.2 °C 1015.1 hPa East 1.6 km/h 3.7 km/h 48 % 0 mm
21:57 22.7 °C 11.1 °C 1015.1 hPa East 0.8 km/h 1.9 km/h 48 % 0 mm
21:58 22.7 °C 11.4 °C 1015.1 hPa Calm   1.9 km/h 49 % 0 mm
21:59 22.6 °C 11.3 °C 1015.1 hPa East 2.1 km/h 3.7 km/h 49 % 0 mm
22:00 22.6 °C 11.3 °C 1015.1 hPa East 5.8 km/h 8 km/h 49 % 0 mm
22:01 22.6 °C 11.3 °C 1015.1 hPa East 5.8 km/h 8 km/h 49 % 0 mm
22:02 22.5 °C 11.2 °C 1015.1 hPa East 7.6 km/h 9.3 km/h 49 % 0 mm
22:03 22.4 °C 11.2 °C 1015.1 hPa East 8.2 km/h 9.3 km/h 49 % 0 mm
22:04 22.3 °C 11.1 °C 1015.1 hPa ESE 8.7 km/h 11.3 km/h 49 % 0 mm
22:05 22.3 °C 11.3 °C 1015.1 hPa ESE 10.3 km/h 13 km/h 50 % 0 mm
22:07 22.2 °C 11.6 °C 1015.1 hPa SSE 10.9 km/h 13 km/h 51 % 0 mm
22:08 22.1 °C 11.8 °C 1015.1 hPa SW 12.2 km/h 16.7 km/h 52 % 0 mm
22:09 22.1 °C 11.7 °C 1015.1 hPa SW 11.7 km/h 16.7 km/h 52 % 0 mm
22:11 21.9 °C 11.9 °C 1015.1 hPa SW 12.4 km/h 16.7 km/h 53 % 0 mm
22:13 21.7 °C 12 °C 1015.1 hPa SW 10.9 km/h 16.7 km/h 54 % 0 mm
22:14 21.6 °C 12.2 °C 1015.1 hPa SW 8.7 km/h 18.5 km/h 55 % 0 mm
22:15 21.6 °C 12.2 °C 1015.1 hPa North 8.9 km/h 18.5 km/h 55 % 0 mm
22:16 21.6 °C 12.1 °C 1015.1 hPa North 8.9 km/h 13 km/h 55 % 0 mm
22:17 21.5 °C 12.1 °C 1015.1 hPa SSW 7.7 km/h 11.1 km/h 55 % 0 mm
22:18 21.4 °C 12 °C 1015.1 hPa SW 8.5 km/h 13 km/h 55 % 0 mm
22:19 21.4 °C 12 °C 1015.1 hPa SW 6.9 km/h 11.1 km/h 55 % 0 mm
22:20 21.4 °C 12 °C 1015.1 hPa SSW 5.3 km/h 8 km/h 55 % 0 mm
22:21 21.3 °C 11.9 °C 1015.1 hPa South 8.2 km/h 14.5 km/h 55 % 0 mm
22:22 21.3 °C 12.2 °C 1015.1 hPa South 10.9 km/h 12.9 km/h 56 % 0 mm
22:23 21.3 °C 12.2 °C 1015.1 hPa South 11.4 km/h 18.5 km/h 56 % 0 mm
22:24 21.3 °C 12.2 °C 1015.1 hPa South 11.4 km/h 16.7 km/h 56 % 0 mm
22:26 21.2 °C 12.3 °C 1015.1 hPa South 8.5 km/h 18.5 km/h 57 % 0 mm
22:27 21.1 °C 12.3 °C 1015.1 hPa South 6.3 km/h 14.8 km/h 57 % 0 mm
22:28 21.1 °C 12.2 °C 1015.1 hPa South 8 km/h 11.1 km/h 57 % 0 mm
22:29 21 °C 12.2 °C 1015.1 hPa South 7.1 km/h 11.1 km/h 57 % 0 mm
22:30 20.9 °C 12.4 °C 1015.5 hPa South 4.3 km/h 8 km/h 58 % 0 mm
22:31 20.9 °C 12.4 °C 1015.5 hPa South 5.3 km/h 11.3 km/h 58 % 0 mm
22:32 20.9 °C 12.3 °C 1015.1 hPa South 5.6 km/h 7.4 km/h 58 % 0 mm
22:33 20.8 °C 12.3 °C 1015.5 hPa South 4.8 km/h 11.1 km/h 58 % 0 mm
22:35 20.7 °C 12.4 °C 1015.5 hPa South 3.7 km/h 6.4 km/h 59 % 0 mm
22:36 20.7 °C 12.4 °C 1015.5 hPa South 5.5 km/h 11.1 km/h 59 % 0 mm
22:39 20.6 °C 12.3 °C 1015.5 hPa South 4 km/h 5.6 km/h 59 % 0 mm
22:40 20.5 °C 12.4 °C 1015.5 hPa South 6.1 km/h 11.1 km/h 60 % 0 mm
22:42 20.4 °C 12.4 °C 1015.5 hPa South 5.1 km/h 6.4 km/h 60 % 0 mm
22:43 20.4 °C 12.4 °C 1015.5 hPa South 4.7 km/h 7.4 km/h 60 % 0 mm
22:44 20.3 °C 12.3 °C 1015.5 hPa South 2.3 km/h 5.6 km/h 60 % 0 mm
22:45 20.3 °C 12.5 °C 1015.5 hPa South 3.9 km/h 5.6 km/h 61 % 0 mm
22:47 20.2 °C 12.4 °C 1015.5 hPa South 5.6 km/h 9.3 km/h 61 % 0 mm
22:48 20.2 °C 12.7 °C 1015.5 hPa South 3.4 km/h 5.6 km/h 62 % 0 mm
22:49 20.2 °C 12.7 °C 1015.5 hPa South 2.9 km/h 5.6 km/h 62 % 0 mm
22:50 20.1 °C 12.6 °C 1015.5 hPa South 1.6 km/h 5.6 km/h 62 % 0 mm
22:51 20.1 °C 12.6 °C 1015.5 hPa South 3.7 km/h 6.4 km/h 62 % 0 mm
22:52 20 °C 12.5 °C 1015.5 hPa South 4.2 km/h 6.4 km/h 62 % 0 mm
22:53 20 °C 12.7 °C 1015.5 hPa South 5.3 km/h 5.6 km/h 63 % 0 mm
22:54 19.9 °C 12.4 °C 1015.5 hPa South 3.2 km/h 7.4 km/h 62 % 0 mm
22:55 19.9 °C 12.7 °C 1015.5 hPa South 0.2 km/h 5.6 km/h 63 % 0 mm
22:56 19.9 °C 12.6 °C 1015.5 hPa South 1.4 km/h 6.4 km/h 63 % 0 mm
22:57 19.9 °C 12.6 °C 1015.5 hPa South 3.4 km/h 7.4 km/h 63 % 0 mm
22:58 19.8 °C 12.6 °C 1015.5 hPa South 0.8 km/h 7.4 km/h 63 % 0 mm
22:59 19.8 °C 12.6 °C 1015.5 hPa South 1.1 km/h 5.6 km/h 63 % 0 mm
23:00 19.8 °C 12.6 °C 1015.1 hPa South 3.4 km/h 5.6 km/h 63 % 0 mm
23:01 19.8 °C 12.8 °C 1015.5 hPa South 3.9 km/h 5.6 km/h 64 % 0 mm
23:02 19.7 °C 12.7 °C 1015.5 hPa South 1 km/h 3.7 km/h 64 % 0 mm
23:03 19.7 °C 12.7 °C 1015.5 hPa South 1.3 km/h 3.7 km/h 64 % 0 mm
23:04 19.7 °C 12.7 °C 1015.5 hPa South 3.7 km/h 6.4 km/h 64 % 0 mm
23:05 19.6 °C 12.6 °C 1015.5 hPa South 5.5 km/h 7.4 km/h 64 % 0 mm
23:06 19.6 °C 12.6 °C 1015.5 hPa South 4.3 km/h 7.4 km/h 64 % 0 mm
23:07 19.6 °C 12.6 °C 1015.5 hPa South 4.3 km/h 7.4 km/h 64 % 0 mm
23:08 19.5 °C 12.7 °C 1015.5 hPa South 5.3 km/h 7.4 km/h 65 % 0 mm
23:09 19.5 °C 12.7 °C 1015.5 hPa South 4.3 km/h 7.4 km/h 65 % 0 mm
23:10 19.4 °C 12.7 °C 1015.5 hPa South 3.7 km/h 5.6 km/h 65 % 0 mm
23:11 19.4 °C 12.7 °C 1015.5 hPa South 3.4 km/h 5.6 km/h 65 % 0 mm
23:12 19.4 °C 12.6 °C 1015.1 hPa South 2.1 km/h 5.6 km/h 65 % 0 mm
23:14 19.4 °C 12.6 °C 1015.1 hPa Calm   3.7 km/h 65 % 0 mm
23:15 19.4 °C 12.6 °C 1015.1 hPa South 0.8 km/h   65 % 0 mm
23:16 19.3 °C 12.8 °C 1015.1 hPa Calm     66 % 0 mm
23:17 19.3 °C 12.8 °C 1015.1 hPa Calm     66 % 0 mm
23:18 19.3 °C 12.8 °C 1015.1 hPa Calm     66 % 0 mm
23:19 19.3 °C 12.8 °C 1015.1 hPa Calm     66 % 0 mm
23:20 19.3 °C 12.8 °C 1015.1 hPa Calm     66 % 0 mm
23:21 19.3 °C 12.8 °C 1015.1 hPa Calm     66 % 0 mm
23:22 19.3 °C 12.8 °C 1015.1 hPa Calm     66 % 0 mm
23:23 19.2 °C 12.7 °C 1015.1 hPa South 0.6 km/h 3.2 km/h 66 % 0 mm
23:24 19.2 °C 12.7 °C 1015.1 hPa North 1.6 km/h 3.7 km/h 66 % 0 mm
23:25 19.2 °C 12.7 °C 1015.1 hPa South 1.3 km/h 3.7 km/h 66 % 0 mm
23:26 19.2 °C 12.7 °C 1015.1 hPa South 0.5 km/h 1.9 km/h 66 % 0 mm
23:27 19.1 °C 12.6 °C 1015.1 hPa South 1.9 km/h 3.7 km/h 66 % 0 mm
23:28 19.1 °C 12.6 °C 1015.1 hPa South 2.3 km/h 3.7 km/h 66 % 0 mm
23:29 19.1 °C 12.6 °C 1015.1 hPa South 2.9 km/h 3.7 km/h 66 % 0 mm
23:30 19.1 °C 12.8 °C 1015.1 hPa South 2.7 km/h 3.7 km/h 67 % 0 mm
23:31 19.1 °C 12.8 °C 1015.1 hPa South 3.5 km/h 3.7 km/h 67 % 0 mm
23:32 19.1 °C 12.8 °C 1015.1 hPa South 2.1 km/h 5.6 km/h 67 % 0 mm
23:34 19 °C 12.7 °C 1015.1 hPa South 1.6 km/h 3.7 km/h 67 % 0 mm
23:35 19 °C 12.7 °C 1015.1 hPa Calm   1.9 km/h 67 % 0 mm
23:36 19 °C 12.7 °C 1015.1 hPa Calm   1.9 km/h 67 % 0 mm
23:37 19 °C 12.7 °C 1015.1 hPa Calm     67 % 0 mm
23:38 18.9 °C 12.7 °C 1015.1 hPa Calm     67 % 0 mm
23:39 18.9 °C 12.7 °C 1015.1 hPa Calm     67 % 0 mm
23:40 18.9 °C 12.7 °C 1015.1 hPa Calm     67 % 0 mm
23:41 18.9 °C 12.7 °C 1015.1 hPa Calm     67 % 0 mm
23:43 18.9 °C 12.6 °C 1015.1 hPa Calm     67 % 0 mm
23:44 18.9 °C 12.6 °C 1015.1 hPa Calm     67 % 0 mm
23:45 18.9 °C 12.8 °C 1015.1 hPa Calm     68 % 0 mm
23:47 18.9 °C 12.8 °C 1015.1 hPa Calm     68 % 0 mm
23:48 18.8 °C 12.8 °C 1015.1 hPa Calm     68 % 0 mm
23:49 18.8 °C 12.8 °C 1015.1 hPa South 1.3 km/h 5.6 km/h 68 % 0 mm
23:50 18.8 °C 12.7 °C 1015.1 hPa South 1.1 km/h 3.7 km/h 68 % 0 mm
23:51 18.8 °C 12.7 °C 1015.1 hPa South 0.8 km/h 3.7 km/h 68 % 0 mm
23:52 18.8 °C 12.7 °C 1015.1 hPa South 0.3 km/h 1.9 km/h 68 % 0 mm
23:53 18.8 °C 12.7 °C 1015.1 hPa Calm   1.9 km/h 68 % 0 mm
23:54 18.8 °C 12.7 °C 1015.1 hPa Calm     68 % 0 mm
23:55 18.8 °C 12.7 °C 1015.1 hPa Calm     68 % 0 mm
23:56 18.7 °C 12.7 °C 1015.1 hPa South 0.5 km/h 1.6 km/h 68 % 0 mm
23:57 18.7 °C 12.7 °C 1015.1 hPa South 0.5 km/h 3.7 km/h 68 % 0 mm
23:59 18.7 °C 12.7 °C 1015.1 hPa South 0.3 km/h 1.9 km/h 68 % 0 mm
Ararat Weather
Compliments of Weather Underground - 7 mb
Click here to send mail.


ABOUT

Live weather data from Ararat, Victoria, Australia, 3377
Data uploaded from Cumulus every 5 minutes to Weather Underground.
This site then downloads the raw data for formatting and display.
Metric and imperial data can be displayed. Graphs and historical data available.
Includes Sun and Moon times and rain image live from BOM.

Check out Ararat Weather on Facebook, Twitter and Google +

Help support ongoing costs by checking out the ads





Follow @AraratWeather